<?xml version="1.0" encoding="UTF-8" standalone="no" ?>
<gpx xmlns="http://www.topografix.com/GPX/1/1" xmlns:xsi="http://www.w3.org/2001/XMLSchema-instance" xsi:schemaLocation="http://www.topografix.com/GPX/1/1 http://www.topografix.com/GPX/1/1/gpx.xsd" version="1.1" creator="VisuGPX - https://www.visugpx.com">
  <metadata>
    <name>TreguierPerros30</name>
  </metadata>
  <trk>
    <name><![CDATA[TreguierPerros30_1]]></name>
    <extensions>
      <line xmlns="http://www.topografix.com/GPX/gpx_style/0/2">
        <color>0000FF</color>
        <width>5</width>
      </line>
    </extensions>
    <trkseg>
      <trkpt lat="48.78707" lon="-3.22421">
        <ele>6</ele>
        <time>2021-03-26T11:14:07.000Z</time>
      </trkpt>
      <trkpt lat="48.78701" lon="-3.22409">
        <ele>5</ele>
        <time>2021-03-26T11:14:09.000Z</time>
      </trkpt>
      <trkpt lat="48.78699" lon="-3.224">
        <ele>5</ele>
        <time>2021-03-26T11:14:10.000Z</time>
      </trkpt>
      <trkpt lat="48.78746" lon="-3.22435">
        <ele>5</ele>
        <time>2021-03-26T11:14:19.000Z</time>
      </trkpt>
      <trkpt lat="48.7879" lon="-3.22475">
        <ele>5</ele>
        <time>2021-03-26T11:14:28.000Z</time>
      </trkpt>
      <trkpt lat="48.78822" lon="-3.22507">
        <ele>5</ele>
        <time>2021-03-26T11:14:35.000Z</time>
      </trkpt>
      <trkpt lat="48.78863" lon="-3.22555">
        <ele>5</ele>
        <time>2021-03-26T11:14:44.000Z</time>
      </trkpt>
      <trkpt lat="48.78855" lon="-3.22594">
        <ele>7</ele>
        <time>2021-03-26T11:14:49.000Z</time>
      </trkpt>
      <trkpt lat="48.7885" lon="-3.22631">
        <ele>9</ele>
        <time>2021-03-26T11:14:54.000Z</time>
      </trkpt>
      <trkpt lat="48.78847" lon="-3.22674">
        <ele>12</ele>
        <time>2021-03-26T11:14:59.000Z</time>
      </trkpt>
      <trkpt lat="48.78847" lon="-3.22711">
        <ele>15</ele>
        <time>2021-03-26T11:15:03.000Z</time>
      </trkpt>
      <trkpt lat="48.78855" lon="-3.22797">
        <ele>20</ele>
        <time>2021-03-26T11:15:13.000Z</time>
      </trkpt>
      <trkpt lat="48.78849" lon="-3.22849">
        <ele>25</ele>
        <time>2021-03-26T11:15:19.000Z</time>
      </trkpt>
      <trkpt lat="48.78845" lon="-3.22862">
        <ele>26</ele>
        <time>2021-03-26T11:15:21.000Z</time>
      </trkpt>
      <trkpt lat="48.78805" lon="-3.22916">
        <ele>30</ele>
        <time>2021-03-26T11:15:31.000Z</time>
      </trkpt>
      <trkpt lat="48.788" lon="-3.22922">
        <ele>30</ele>
        <time>2021-03-26T11:15:32.000Z</time>
      </trkpt>
      <trkpt lat="48.78797" lon="-3.22934">
        <ele>30</ele>
        <time>2021-03-26T11:15:33.000Z</time>
      </trkpt>
      <trkpt lat="48.78796" lon="-3.2294">
        <ele>30</ele>
        <time>2021-03-26T11:15:34.000Z</time>
      </trkpt>
      <trkpt lat="48.78796" lon="-3.22954">
        <ele>31</ele>
        <time>2021-03-26T11:15:36.000Z</time>
      </trkpt>
      <trkpt lat="48.78798" lon="-3.22976">
        <ele>31</ele>
        <time>2021-03-26T11:15:38.000Z</time>
      </trkpt>
      <trkpt lat="48.78798" lon="-3.22984">
        <ele>31</ele>
        <time>2021-03-26T11:15:39.000Z</time>
      </trkpt>
      <trkpt lat="48.78789" lon="-3.23012">
        <ele>33</ele>
        <time>2021-03-26T11:15:43.000Z</time>
      </trkpt>
      <trkpt lat="48.78786" lon="-3.23022">
        <ele>33</ele>
        <time>2021-03-26T11:15:44.000Z</time>
      </trkpt>
      <trkpt lat="48.78782" lon="-3.23025">
        <ele>34</ele>
        <time>2021-03-26T11:15:45.000Z</time>
      </trkpt>
      <trkpt lat="48.78779" lon="-3.23027">
        <ele>34</ele>
        <time>2021-03-26T11:15:45.000Z</time>
      </trkpt>
      <trkpt lat="48.78734" lon="-3.23016">
        <ele>35</ele>
        <time>2021-03-26T11:15:54.000Z</time>
      </trkpt>
      <trkpt lat="48.78727" lon="-3.23069">
        <ele>39</ele>
        <time>2021-03-26T11:16:00.000Z</time>
      </trkpt>
      <trkpt lat="48.78721" lon="-3.23072">
        <ele>40</ele>
        <time>2021-03-26T11:16:01.000Z</time>
      </trkpt>
      <trkpt lat="48.78715" lon="-3.23088">
        <ele>41</ele>
        <time>2021-03-26T11:16:03.000Z</time>
      </trkpt>
      <trkpt lat="48.78711" lon="-3.23125">
        <ele>42</ele>
        <time>2021-03-26T11:16:08.000Z</time>
      </trkpt>
      <trkpt lat="48.78712" lon="-3.23134">
        <ele>42</ele>
        <time>2021-03-26T11:16:09.000Z</time>
      </trkpt>
      <trkpt lat="48.7872" lon="-3.23143">
        <ele>42</ele>
        <time>2021-03-26T11:16:10.000Z</time>
      </trkpt>
      <trkpt lat="48.78752" lon="-3.23149">
        <ele>41</ele>
        <time>2021-03-26T11:16:16.000Z</time>
      </trkpt>
      <trkpt lat="48.78764" lon="-3.23151">
        <ele>40</ele>
        <time>2021-03-26T11:16:18.000Z</time>
      </trkpt>
      <trkpt lat="48.78771" lon="-3.23149">
        <ele>40</ele>
        <time>2021-03-26T11:16:20.000Z</time>
      </trkpt>
      <trkpt lat="48.78774" lon="-3.23146">
        <ele>39</ele>
        <time>2021-03-26T11:16:20.000Z</time>
      </trkpt>
      <trkpt lat="48.7878" lon="-3.23167">
        <ele>39</ele>
        <time>2021-03-26T11:16:23.000Z</time>
      </trkpt>
      <trkpt lat="48.7878" lon="-3.23173">
        <ele>39</ele>
        <time>2021-03-26T11:16:24.000Z</time>
      </trkpt>
      <trkpt lat="48.78733" lon="-3.2327">
        <ele>41</ele>
        <time>2021-03-26T11:16:38.000Z</time>
      </trkpt>
      <trkpt lat="48.78816" lon="-3.23324">
        <ele>35</ele>
        <time>2021-03-26T11:16:54.000Z</time>
      </trkpt>
      <trkpt lat="48.78823" lon="-3.23334">
        <ele>34</ele>
        <time>2021-03-26T11:16:55.000Z</time>
      </trkpt>
      <trkpt lat="48.78827" lon="-3.23342">
        <ele>33</ele>
        <time>2021-03-26T11:16:57.000Z</time>
      </trkpt>
      <trkpt lat="48.78828" lon="-3.23391">
        <ele>29</ele>
        <time>2021-03-26T11:17:02.000Z</time>
      </trkpt>
      <trkpt lat="48.78822" lon="-3.23415">
        <ele>28</ele>
        <time>2021-03-26T11:17:05.000Z</time>
      </trkpt>
      <trkpt lat="48.78823" lon="-3.23427">
        <ele>27</ele>
        <time>2021-03-26T11:17:07.000Z</time>
      </trkpt>
      <trkpt lat="48.78816" lon="-3.23481">
        <ele>24</ele>
        <time>2021-03-26T11:17:13.000Z</time>
      </trkpt>
      <trkpt lat="48.78802" lon="-3.23521">
        <ele>25</ele>
        <time>2021-03-26T11:17:19.000Z</time>
      </trkpt>
      <trkpt lat="48.78799" lon="-3.23536">
        <ele>25</ele>
        <time>2021-03-26T11:17:20.000Z</time>
      </trkpt>
      <trkpt lat="48.78798" lon="-3.23563">
        <ele>25</ele>
        <time>2021-03-26T11:17:24.000Z</time>
      </trkpt>
      <trkpt lat="48.78801" lon="-3.23574">
        <ele>25</ele>
        <time>2021-03-26T11:17:25.000Z</time>
      </trkpt>
      <trkpt lat="48.78836" lon="-3.23663">
        <ele>24</ele>
        <time>2021-03-26T11:17:37.000Z</time>
      </trkpt>
      <trkpt lat="48.78868" lon="-3.23713">
        <ele>18</ele>
        <time>2021-03-26T11:17:45.000Z</time>
      </trkpt>
      <trkpt lat="48.7888" lon="-3.23727">
        <ele>15</ele>
        <time>2021-03-26T11:17:48.000Z</time>
      </trkpt>
      <trkpt lat="48.78895" lon="-3.23743">
        <ele>12</ele>
        <time>2021-03-26T11:17:51.000Z</time>
      </trkpt>
      <trkpt lat="48.78914" lon="-3.23751">
        <ele>7</ele>
        <time>2021-03-26T11:17:55.000Z</time>
      </trkpt>
      <trkpt lat="48.78932" lon="-3.23755">
        <ele>8</ele>
        <time>2021-03-26T11:17:58.000Z</time>
      </trkpt>
      <trkpt lat="48.78945" lon="-3.23755">
        <ele>8</ele>
        <time>2021-03-26T11:18:00.000Z</time>
      </trkpt>
      <trkpt lat="48.78955" lon="-3.23748">
        <ele>3</ele>
        <time>2021-03-26T11:18:02.000Z</time>
      </trkpt>
      <trkpt lat="48.78973" lon="-3.23737">
        <ele>3</ele>
        <time>2021-03-26T11:18:06.000Z</time>
      </trkpt>
      <trkpt lat="48.78979" lon="-3.23727">
        <ele>3</ele>
        <time>2021-03-26T11:18:07.000Z</time>
      </trkpt>
      <trkpt lat="48.78979" lon="-3.23723">
        <ele>3</ele>
        <time>2021-03-26T11:18:08.000Z</time>
      </trkpt>
      <trkpt lat="48.78962" lon="-3.2362">
        <ele>4</ele>
        <time>2021-03-26T11:18:20.000Z</time>
      </trkpt>
      <trkpt lat="48.78965" lon="-3.23614">
        <ele>5</ele>
        <time>2021-03-26T11:18:21.000Z</time>
      </trkpt>
      <trkpt lat="48.78988" lon="-3.23606">
        <ele>6</ele>
        <time>2021-03-26T11:18:25.000Z</time>
      </trkpt>
      <trkpt lat="48.78983" lon="-3.23583">
        <ele>8</ele>
        <time>2021-03-26T11:18:28.000Z</time>
      </trkpt>
      <trkpt lat="48.78977" lon="-3.23555">
        <ele>8</ele>
        <time>2021-03-26T11:18:32.000Z</time>
      </trkpt>
      <trkpt lat="48.78978" lon="-3.2354">
        <ele>9</ele>
        <time>2021-03-26T11:18:33.000Z</time>
      </trkpt>
      <trkpt lat="48.78984" lon="-3.2351">
        <ele>10</ele>
        <time>2021-03-26T11:18:37.000Z</time>
      </trkpt>
      <trkpt lat="48.79014" lon="-3.23444">
        <ele>12</ele>
        <time>2021-03-26T11:18:46.000Z</time>
      </trkpt>
      <trkpt lat="48.7902" lon="-3.23442">
        <ele>13</ele>
        <time>2021-03-26T11:18:48.000Z</time>
      </trkpt>
      <trkpt lat="48.79021" lon="-3.23458">
        <ele>13</ele>
        <time>2021-03-26T11:18:49.000Z</time>
      </trkpt>
      <trkpt lat="48.79024" lon="-3.23485">
        <ele>14</ele>
        <time>2021-03-26T11:18:53.000Z</time>
      </trkpt>
      <trkpt lat="48.79028" lon="-3.23505">
        <ele>15</ele>
        <time>2021-03-26T11:18:55.000Z</time>
      </trkpt>
      <trkpt lat="48.79035" lon="-3.23527">
        <ele>15</ele>
        <time>2021-03-26T11:18:58.000Z</time>
      </trkpt>
      <trkpt lat="48.79047" lon="-3.23549">
        <ele>15</ele>
        <time>2021-03-26T11:19:01.000Z</time>
      </trkpt>
      <trkpt lat="48.7906" lon="-3.23566">
        <ele>15</ele>
        <time>2021-03-26T11:19:04.000Z</time>
      </trkpt>
      <trkpt lat="48.79064" lon="-3.23571">
        <ele>15</ele>
        <time>2021-03-26T11:19:05.000Z</time>
      </trkpt>
      <trkpt lat="48.79067" lon="-3.23573">
        <ele>15</ele>
        <time>2021-03-26T11:19:06.000Z</time>
      </trkpt>
      <trkpt lat="48.79091" lon="-3.23591">
        <ele>16</ele>
        <time>2021-03-26T11:19:11.000Z</time>
      </trkpt>
      <trkpt lat="48.79101" lon="-3.236">
        <ele>16</ele>
        <time>2021-03-26T11:19:13.000Z</time>
      </trkpt>
      <trkpt lat="48.79133" lon="-3.23642">
        <ele>14</ele>
        <time>2021-03-26T11:19:20.000Z</time>
      </trkpt>
      <trkpt lat="48.79167" lon="-3.23691">
        <ele>10</ele>
        <time>2021-03-26T11:19:29.000Z</time>
      </trkpt>
      <trkpt lat="48.79169" lon="-3.23693">
        <ele>11</ele>
        <time>2021-03-26T11:19:29.000Z</time>
      </trkpt>
      <trkpt lat="48.79178" lon="-3.23705">
        <ele>11</ele>
        <time>2021-03-26T11:19:31.000Z</time>
      </trkpt>
      <trkpt lat="48.79193" lon="-3.23722">
        <ele>11</ele>
        <time>2021-03-26T11:19:34.000Z</time>
      </trkpt>
      <trkpt lat="48.79207" lon="-3.23746">
        <ele>10</ele>
        <time>2021-03-26T11:19:38.000Z</time>
      </trkpt>
      <trkpt lat="48.7921" lon="-3.23751">
        <ele>10</ele>
        <time>2021-03-26T11:19:39.000Z</time>
      </trkpt>
      <trkpt lat="48.7921" lon="-3.23768">
        <ele>10</ele>
        <time>2021-03-26T11:19:41.000Z</time>
      </trkpt>
      <trkpt lat="48.79209" lon="-3.23782">
        <ele>10</ele>
        <time>2021-03-26T11:19:43.000Z</time>
      </trkpt>
      <trkpt lat="48.79226" lon="-3.23786">
        <ele>12</ele>
        <time>2021-03-26T11:19:46.000Z</time>
      </trkpt>
      <trkpt lat="48.79324" lon="-3.23857">
        <ele>21</ele>
        <time>2021-03-26T11:20:05.000Z</time>
      </trkpt>
      <trkpt lat="48.79359" lon="-3.23885">
        <ele>28</ele>
        <time>2021-03-26T11:20:12.000Z</time>
      </trkpt>
      <trkpt lat="48.79359" lon="-3.23899">
        <ele>28</ele>
        <time>2021-03-26T11:20:14.000Z</time>
      </trkpt>
      <trkpt lat="48.79351" lon="-3.23946">
        <ele>32</ele>
        <time>2021-03-26T11:20:19.000Z</time>
      </trkpt>
      <trkpt lat="48.79344" lon="-3.23969">
        <ele>34</ele>
        <time>2021-03-26T11:20:22.000Z</time>
      </trkpt>
      <trkpt lat="48.79331" lon="-3.23996">
        <ele>36</ele>
        <time>2021-03-26T11:20:26.000Z</time>
      </trkpt>
      <trkpt lat="48.79307" lon="-3.2403">
        <ele>35</ele>
        <time>2021-03-26T11:20:32.000Z</time>
      </trkpt>
      <trkpt lat="48.79292" lon="-3.24043">
        <ele>34</ele>
        <time>2021-03-26T11:20:35.000Z</time>
      </trkpt>
      <trkpt lat="48.79234" lon="-3.24082">
        <ele>33</ele>
        <time>2021-03-26T11:20:46.000Z</time>
      </trkpt>
      <trkpt lat="48.79212" lon="-3.24103">
        <ele>32</ele>
        <time>2021-03-26T11:20:51.000Z</time>
      </trkpt>
      <trkpt lat="48.79203" lon="-3.24117">
        <ele>33</ele>
        <time>2021-03-26T11:20:53.000Z</time>
      </trkpt>
      <trkpt lat="48.7919" lon="-3.24141">
        <ele>33</ele>
        <time>2021-03-26T11:20:57.000Z</time>
      </trkpt>
      <trkpt lat="48.79157" lon="-3.24246">
        <ele>39</ele>
        <time>2021-03-26T11:21:11.000Z</time>
      </trkpt>
      <trkpt lat="48.79141" lon="-3.24316">
        <ele>39</ele>
        <time>2021-03-26T11:21:19.000Z</time>
      </trkpt>
      <trkpt lat="48.79139" lon="-3.24327">
        <ele>39</ele>
        <time>2021-03-26T11:21:21.000Z</time>
      </trkpt>
      <trkpt lat="48.79136" lon="-3.24349">
        <ele>39</ele>
        <time>2021-03-26T11:21:23.000Z</time>
      </trkpt>
      <trkpt lat="48.79131" lon="-3.24392">
        <ele>39</ele>
        <time>2021-03-26T11:21:28.000Z</time>
      </trkpt>
      <trkpt lat="48.79129" lon="-3.24415">
        <ele>39</ele>
        <time>2021-03-26T11:21:31.000Z</time>
      </trkpt>
      <trkpt lat="48.7911" lon="-3.24553">
        <ele>39</ele>
        <time>2021-03-26T11:21:48.000Z</time>
      </trkpt>
      <trkpt lat="48.79109" lon="-3.24612">
        <ele>41</ele>
        <time>2021-03-26T11:21:55.000Z</time>
      </trkpt>
      <trkpt lat="48.79111" lon="-3.24636">
        <ele>41</ele>
        <time>2021-03-26T11:21:57.000Z</time>
      </trkpt>
      <trkpt lat="48.79118" lon="-3.2467">
        <ele>43</ele>
        <time>2021-03-26T11:22:02.000Z</time>
      </trkpt>
      <trkpt lat="48.79136" lon="-3.24734">
        <ele>44</ele>
        <time>2021-03-26T11:22:10.000Z</time>
      </trkpt>
      <trkpt lat="48.79197" lon="-3.2486">
        <ele>50</ele>
        <time>2021-03-26T11:22:28.000Z</time>
      </trkpt>
      <trkpt lat="48.79264" lon="-3.25008">
        <ele>58</ele>
        <time>2021-03-26T11:22:49.000Z</time>
      </trkpt>
      <trkpt lat="48.79303" lon="-3.25088">
        <ele>58</ele>
        <time>2021-03-26T11:23:01.000Z</time>
      </trkpt>
      <trkpt lat="48.79362" lon="-3.25235">
        <ele>55</ele>
        <time>2021-03-26T11:23:21.000Z</time>
      </trkpt>
      <trkpt lat="48.79368" lon="-3.25271">
        <ele>57.5</ele>
        <time>2018-04-20T14:42:09.907Z</time>
      </trkpt>
      <trkpt lat="48.79403" lon="-3.25378">
        <ele>60.5</ele>
        <time>2018-04-20T14:42:22.193Z</time>
      </trkpt>
      <trkpt lat="48.79469" lon="-3.25586">
        <ele>63.2</ele>
        <time>2018-04-20T14:42:39.077Z</time>
      </trkpt>
      <trkpt lat="48.79669" lon="-3.26157">
        <ele>59</ele>
        <time>2018-04-20T14:43:26.493Z</time>
      </trkpt>
      <trkpt lat="48.79748" lon="-3.26542">
        <ele>55</ele>
        <time>2018-04-20T14:43:56.061Z</time>
      </trkpt>
      <trkpt lat="48.80111" lon="-3.27061">
        <ele>45.2</ele>
        <time>2018-04-20T14:44:51.446Z</time>
      </trkpt>
      <trkpt lat="48.80138" lon="-3.27321">
        <ele>44.7</ele>
        <time>2018-04-20T14:45:10.688Z</time>
      </trkpt>
      <trkpt lat="48.8005" lon="-3.27878">
        <ele>51</ele>
        <time>2018-04-20T14:45:52.637Z</time>
      </trkpt>
      <trkpt lat="48.80142" lon="-3.28625">
        <ele>57.4</ele>
        <time>2018-04-20T14:46:48.304Z</time>
      </trkpt>
      <trkpt lat="48.80196" lon="-3.29051">
        <ele>63.6</ele>
        <time>2018-04-20T14:47:20.122Z</time>
      </trkpt>
      <trkpt lat="48.80282" lon="-3.29233">
        <ele>67.3</ele>
        <time>2018-04-20T14:47:36.580Z</time>
      </trkpt>
      <trkpt lat="48.80467" lon="-3.29658">
        <ele>69.7</ele>
        <time>2018-04-20T14:48:13.818Z</time>
      </trkpt>
      <trkpt lat="48.80428" lon="-3.29843">
        <ele>70.5</ele>
        <time>2018-04-20T14:48:28.078Z</time>
      </trkpt>
      <trkpt lat="48.80469" lon="-3.29887">
        <ele>72.2</ele>
        <time>2018-04-20T14:48:33.654Z</time>
      </trkpt>
      <trkpt lat="48.80466" lon="-3.29985">
        <ele>73.4</ele>
        <time>2018-04-20T14:48:40.842Z</time>
      </trkpt>
      <trkpt lat="48.80542" lon="-3.30092">
        <ele>74.6</ele>
        <time>2018-04-20T14:48:52.375Z</time>
      </trkpt>
      <trkpt lat="48.80566" lon="-3.30194">
        <ele>76</ele>
        <time>2018-04-20T14:49:00.280Z</time>
      </trkpt>
      <trkpt lat="48.80649" lon="-3.30212">
        <ele>76.9</ele>
        <time>2018-04-20T14:49:09.582Z</time>
      </trkpt>
      <trkpt lat="48.80677" lon="-3.30259">
        <ele>72.5</ele>
        <time>2018-04-20T14:49:14.263Z</time>
      </trkpt>
      <trkpt lat="48.80746" lon="-3.30325">
        <ele>76.3</ele>
        <time>2018-04-20T14:49:23.352Z</time>
      </trkpt>
      <trkpt lat="48.80672" lon="-3.3062">
        <ele>76</ele>
        <time>2018-04-20T14:49:46.458Z</time>
      </trkpt>
      <trkpt lat="48.80793" lon="-3.30749">
        <ele>73.5</ele>
        <time>2018-04-20T14:50:02.812Z</time>
      </trkpt>
      <trkpt lat="48.80782" lon="-3.30967">
        <ele>72</ele>
        <time>2018-04-20T14:50:18.820Z</time>
      </trkpt>
      <trkpt lat="48.807" lon="-3.31038">
        <ele>76.7</ele>
        <time>2018-04-20T14:50:29.348Z</time>
      </trkpt>
      <trkpt lat="48.8064" lon="-3.31198">
        <ele>78.4</ele>
        <time>2018-04-20T14:50:42.895Z</time>
      </trkpt>
      <trkpt lat="48.80735" lon="-3.31233">
        <ele>73.7</ele>
        <time>2018-04-20T14:50:53.844Z</time>
      </trkpt>
      <trkpt lat="48.80792" lon="-3.31586">
        <ele>72.5</ele>
        <time>2018-04-20T14:51:20.446Z</time>
      </trkpt>
      <trkpt lat="48.80883" lon="-3.31675">
        <ele>72.8</ele>
        <time>2018-04-20T14:51:32.452Z</time>
      </trkpt>
      <trkpt lat="48.81028" lon="-3.31731">
        <ele>74.5</ele>
        <time>2018-04-20T14:51:49.050Z</time>
      </trkpt>
      <trkpt lat="48.81039" lon="-3.31875">
        <ele>74</ele>
        <time>2018-04-20T14:51:59.723Z</time>
      </trkpt>
      <trkpt lat="48.81106" lon="-3.32018">
        <ele>72.4</ele>
        <time>2018-04-20T14:52:12.554Z</time>
      </trkpt>
      <trkpt lat="48.81227" lon="-3.32071">
        <ele>69.1</ele>
        <time>2018-04-20T14:52:26.578Z</time>
      </trkpt>
      <trkpt lat="48.81289" lon="-3.32604">
        <ele>70.6</ele>
        <time>2018-04-20T14:53:06.176Z</time>
      </trkpt>
      <trkpt lat="48.81253" lon="-3.32803">
        <ele>70.6</ele>
        <time>2018-04-20T14:53:21.307Z</time>
      </trkpt>
      <trkpt lat="48.81276" lon="-3.32929">
        <ele>70.4</ele>
        <time>2018-04-20T14:53:30.880Z</time>
      </trkpt>
      <trkpt lat="48.81256" lon="-3.33126">
        <ele>70.8</ele>
        <time>2018-04-20T14:53:45.480Z</time>
      </trkpt>
      <trkpt lat="48.81256" lon="-3.33238">
        <ele>71.6</ele>
        <time>2018-04-20T14:53:53.647Z</time>
      </trkpt>
      <trkpt lat="48.81288" lon="-3.33381">
        <ele>67.2</ele>
        <time>2018-04-20T14:54:04.744Z</time>
      </trkpt>
      <trkpt lat="48.81277" lon="-3.33515">
        <ele>64.2</ele>
        <time>2018-04-20T14:54:14.657Z</time>
      </trkpt>
      <trkpt lat="48.81334" lon="-3.33585">
        <ele>58.9</ele>
        <time>2018-04-20T14:54:22.841Z</time>
      </trkpt>
      <trkpt lat="48.81347" lon="-3.33758">
        <ele>54</ele>
        <time>2018-04-20T14:54:35.580Z</time>
      </trkpt>
      <trkpt lat="48.81302" lon="-3.33857">
        <ele>54.4</ele>
        <time>2018-04-20T14:54:44.324Z</time>
      </trkpt>
      <trkpt lat="48.81294" lon="-3.34027">
        <ele>52.4</ele>
        <time>2018-04-20T14:54:56.837Z</time>
      </trkpt>
      <trkpt lat="48.81266" lon="-3.34235">
        <ele>47.7</ele>
        <time>2018-04-20T14:55:12.404Z</time>
      </trkpt>
      <trkpt lat="48.81218" lon="-3.34469">
        <ele>35.2</ele>
        <time>2018-04-20T14:55:30.380Z</time>
      </trkpt>
      <trkpt lat="48.81229" lon="-3.34583">
        <ele>19.3</ele>
        <time>2018-04-20T14:55:38.994Z</time>
      </trkpt>
      <trkpt lat="48.81214" lon="-3.34594">
        <ele>17.3</ele>
        <time>2018-04-20T14:55:40.890Z</time>
      </trkpt>
      <trkpt lat="48.812" lon="-3.34608">
        <ele>14.7</ele>
        <time>2018-04-20T14:55:42.712Z</time>
      </trkpt>
      <trkpt lat="48.81189" lon="-3.34625">
        <ele>12.2</ele>
        <time>2018-04-20T14:55:44.529Z</time>
      </trkpt>
      <trkpt lat="48.81183" lon="-3.34642">
        <ele>11.9</ele>
        <time>2018-04-20T14:55:45.904Z</time>
      </trkpt>
      <trkpt lat="48.81179" lon="-3.34667">
        <ele>11.6</ele>
        <time>2018-04-20T14:55:47.786Z</time>
      </trkpt>
      <trkpt lat="48.81176" lon="-3.34712">
        <ele>12.9</ele>
        <time>2018-04-20T14:55:51.094Z</time>
      </trkpt>
      <trkpt lat="48.81176" lon="-3.34743">
        <ele>13.7</ele>
        <time>2018-04-20T14:55:53.415Z</time>
      </trkpt>
      <trkpt lat="48.81177" lon="-3.34759">
        <ele>14.2</ele>
        <time>2018-04-20T14:55:54.591Z</time>
      </trkpt>
      <trkpt lat="48.8118" lon="-3.3479">
        <ele>15.6</ele>
        <time>2018-04-20T14:55:56.847Z</time>
      </trkpt>
      <trkpt lat="48.8118" lon="-3.34806">
        <ele>16.4</ele>
        <time>2018-04-20T14:55:58.043Z</time>
      </trkpt>
      <trkpt lat="48.81181" lon="-3.34821">
        <ele>16.9</ele>
        <time>2018-04-20T14:55:59.129Z</time>
      </trkpt>
      <trkpt lat="48.81179" lon="-3.34833">
        <ele>18</ele>
        <time>2018-04-20T14:56:00.071Z</time>
      </trkpt>
      <trkpt lat="48.81182" lon="-3.34847">
        <ele>18.7</ele>
        <time>2018-04-20T14:56:01.081Z</time>
      </trkpt>
      <trkpt lat="48.81196" lon="-3.34893">
        <ele>22</ele>
        <time>2018-04-20T14:56:04.830Z</time>
      </trkpt>
      <trkpt lat="48.81198" lon="-3.34905">
        <ele>22.5</ele>
        <time>2018-04-20T14:56:05.722Z</time>
      </trkpt>
      <trkpt lat="48.81206" lon="-3.34925">
        <ele>24.4</ele>
        <time>2018-04-20T14:56:07.477Z</time>
      </trkpt>
      <trkpt lat="48.81212" lon="-3.34934">
        <ele>25</ele>
        <time>2018-04-20T14:56:08.382Z</time>
      </trkpt>
      <trkpt lat="48.81229" lon="-3.34964">
        <ele>27.1</ele>
        <time>2018-04-20T14:56:11.255Z</time>
      </trkpt>
      <trkpt lat="48.81242" lon="-3.35">
        <ele>29.5</ele>
        <time>2018-04-20T14:56:14.314Z</time>
      </trkpt>
      <trkpt lat="48.81247" lon="-3.35012">
        <ele>30.5</ele>
        <time>2018-04-20T14:56:15.349Z</time>
      </trkpt>
      <trkpt lat="48.81252" lon="-3.35022">
        <ele>31.2</ele>
        <time>2018-04-20T14:56:16.319Z</time>
      </trkpt>
      <trkpt lat="48.81275" lon="-3.35059">
        <ele>36.1</ele>
        <time>2018-04-20T14:56:20.094Z</time>
      </trkpt>
      <trkpt lat="48.81284" lon="-3.35077">
        <ele>38.5</ele>
        <time>2018-04-20T14:56:21.734Z</time>
      </trkpt>
      <trkpt lat="48.81291" lon="-3.35095">
        <ele>41</ele>
        <time>2018-04-20T14:56:23.274Z</time>
      </trkpt>
      <trkpt lat="48.81306" lon="-3.35132">
        <ele>44.8</ele>
        <time>2018-04-20T14:56:26.455Z</time>
      </trkpt>
      <trkpt lat="48.81309" lon="-3.35141">
        <ele>46.1</ele>
        <time>2018-04-20T14:56:27.214Z</time>
      </trkpt>
      <trkpt lat="48.81315" lon="-3.35159">
        <ele>48.2</ele>
        <time>2018-04-20T14:56:28.710Z</time>
      </trkpt>
      <trkpt lat="48.8132" lon="-3.35177">
        <ele>49.4</ele>
        <time>2018-04-20T14:56:30.103Z</time>
      </trkpt>
      <trkpt lat="48.81321" lon="-3.35194">
        <ele>50.4</ele>
        <time>2018-04-20T14:56:31.375Z</time>
      </trkpt>
      <trkpt lat="48.81321" lon="-3.3521">
        <ele>51.3</ele>
        <time>2018-04-20T14:56:32.585Z</time>
      </trkpt>
      <trkpt lat="48.8132" lon="-3.35231">
        <ele>51.9</ele>
        <time>2018-04-20T14:56:34.139Z</time>
      </trkpt>
      <trkpt lat="48.81317" lon="-3.35254">
        <ele>52.4</ele>
        <time>2018-04-20T14:56:35.849Z</time>
      </trkpt>
      <trkpt lat="48.81315" lon="-3.35283">
        <ele>52.2</ele>
        <time>2018-04-20T14:56:37.951Z</time>
      </trkpt>
      <trkpt lat="48.81311" lon="-3.35324">
        <ele>51.6</ele>
        <time>2018-04-20T14:56:40.973Z</time>
      </trkpt>
      <trkpt lat="48.81307" lon="-3.35344">
        <ele>51.4</ele>
        <time>2018-04-20T14:56:42.550Z</time>
      </trkpt>
      <trkpt lat="48.81303" lon="-3.35376">
        <ele>51.3</ele>
        <time>2018-04-20T14:56:44.939Z</time>
      </trkpt>
      <trkpt lat="48.81303" lon="-3.35396">
        <ele>51.1</ele>
        <time>2018-04-20T14:56:46.396Z</time>
      </trkpt>
      <trkpt lat="48.81307" lon="-3.35432">
        <ele>51</ele>
        <time>2018-04-20T14:56:49.022Z</time>
      </trkpt>
      <trkpt lat="48.81307" lon="-3.35445">
        <ele>50.9</ele>
        <time>2018-04-20T14:56:49.991Z</time>
      </trkpt>
      <trkpt lat="48.81306" lon="-3.35458">
        <ele>50.8</ele>
        <time>2018-04-20T14:56:50.958Z</time>
      </trkpt>
      <trkpt lat="48.813" lon="-3.35483">
        <ele>50.8</ele>
        <time>2018-04-20T14:56:52.873Z</time>
      </trkpt>
      <trkpt lat="48.81288" lon="-3.35518">
        <ele>50.8</ele>
        <time>2018-04-20T14:56:55.758Z</time>
      </trkpt>
      <trkpt lat="48.81269" lon="-3.35562">
        <ele>50.5</ele>
        <time>2018-04-20T14:56:59.626Z</time>
      </trkpt>
      <trkpt lat="48.81259" lon="-3.35581">
        <ele>50.1</ele>
        <time>2018-04-20T14:57:01.412Z</time>
      </trkpt>
      <trkpt lat="48.81251" lon="-3.35602">
        <ele>50.3</ele>
        <time>2018-04-20T14:57:03.198Z</time>
      </trkpt>
      <trkpt lat="48.81244" lon="-3.35624">
        <ele>50.1</ele>
        <time>2018-04-20T14:57:04.925Z</time>
      </trkpt>
      <trkpt lat="48.81232" lon="-3.35652">
        <ele>50.4</ele>
        <time>2018-04-20T14:57:07.424Z</time>
      </trkpt>
      <trkpt lat="48.8123" lon="-3.35674">
        <ele>50.6</ele>
        <time>2018-04-20T14:57:09.055Z</time>
      </trkpt>
      <trkpt lat="48.81249" lon="-3.35715">
        <ele>50.9</ele>
        <time>2018-04-20T14:57:12.732Z</time>
      </trkpt>
      <trkpt lat="48.81254" lon="-3.35725">
        <ele>50.8</ele>
        <time>2018-04-20T14:57:13.689Z</time>
      </trkpt>
      <trkpt lat="48.81261" lon="-3.35746">
        <ele>51.2</ele>
        <time>2018-04-20T14:57:15.387Z</time>
      </trkpt>
      <trkpt lat="48.81265" lon="-3.35755">
        <ele>51.1</ele>
        <time>2018-04-20T14:57:16.150Z</time>
      </trkpt>
      <trkpt lat="48.8127" lon="-3.35774">
        <ele>51.4</ele>
        <time>2018-04-20T14:57:17.664Z</time>
      </trkpt>
      <trkpt lat="48.81269" lon="-3.35786">
        <ele>51.2</ele>
        <time>2018-04-20T14:57:18.594Z</time>
      </trkpt>
      <trkpt lat="48.8126" lon="-3.358">
        <ele>51</ele>
        <time>2018-04-20T14:57:19.994Z</time>
      </trkpt>
      <trkpt lat="48.81252" lon="-3.35805">
        <ele>50.7</ele>
        <time>2018-04-20T14:57:21.002Z</time>
      </trkpt>
      <trkpt lat="48.81238" lon="-3.35818">
        <ele>50.5</ele>
        <time>2018-04-20T14:57:22.825Z</time>
      </trkpt>
      <trkpt lat="48.81231" lon="-3.35826">
        <ele>50.6</ele>
        <time>2018-04-20T14:57:23.777Z</time>
      </trkpt>
      <trkpt lat="48.8122" lon="-3.35842">
        <ele>50.2</ele>
        <time>2018-04-20T14:57:25.488Z</time>
      </trkpt>
      <trkpt lat="48.81213" lon="-3.35861">
        <ele>50.3</ele>
        <time>2018-04-20T14:57:27.069Z</time>
      </trkpt>
      <trkpt lat="48.8121" lon="-3.35872">
        <ele>49.9</ele>
        <time>2018-04-20T14:57:27.932Z</time>
      </trkpt>
      <trkpt lat="48.81204" lon="-3.35888">
        <ele>49.2</ele>
        <time>2018-04-20T14:57:29.281Z</time>
      </trkpt>
      <trkpt lat="48.81198" lon="-3.35898">
        <ele>48.7</ele>
        <time>2018-04-20T14:57:30.295Z</time>
      </trkpt>
      <trkpt lat="48.81188" lon="-3.35919">
        <ele>47.1</ele>
        <time>2018-04-20T14:57:32.209Z</time>
      </trkpt>
      <trkpt lat="48.81182" lon="-3.35928">
        <ele>46.4</ele>
        <time>2018-04-20T14:57:33.136Z</time>
      </trkpt>
      <trkpt lat="48.81169" lon="-3.35939">
        <ele>45.2</ele>
        <time>2018-04-20T14:57:34.866Z</time>
      </trkpt>
      <trkpt lat="48.81158" lon="-3.35954">
        <ele>44.4</ele>
        <time>2018-04-20T14:57:36.463Z</time>
      </trkpt>
      <trkpt lat="48.81149" lon="-3.35972">
        <ele>43.5</ele>
        <time>2018-04-20T14:57:38.108Z</time>
      </trkpt>
      <trkpt lat="48.81145" lon="-3.35997">
        <ele>42.2</ele>
        <time>2018-04-20T14:57:40.000Z</time>
      </trkpt>
      <trkpt lat="48.81143" lon="-3.36038">
        <ele>41.1</ele>
        <time>2018-04-20T14:57:43.067Z</time>
      </trkpt>
      <trkpt lat="48.81139" lon="-3.36079">
        <ele>40.2</ele>
        <time>2018-04-20T14:57:46.105Z</time>
      </trkpt>
      <trkpt lat="48.81136" lon="-3.36096">
        <ele>39.8</ele>
        <time>2018-04-20T14:57:47.330Z</time>
      </trkpt>
      <trkpt lat="48.8113" lon="-3.36122">
        <ele>39</ele>
        <time>2018-04-20T14:57:49.380Z</time>
      </trkpt>
      <trkpt lat="48.81124" lon="-3.36143">
        <ele>39</ele>
        <time>2018-04-20T14:57:51.088Z</time>
      </trkpt>
      <trkpt lat="48.81111" lon="-3.36179">
        <ele>38.7</ele>
        <time>2018-04-20T14:57:54.076Z</time>
      </trkpt>
      <trkpt lat="48.81096" lon="-3.36219">
        <ele>39.4</ele>
        <time>2018-04-20T14:57:57.450Z</time>
      </trkpt>
      <trkpt lat="48.81084" lon="-3.36247">
        <ele>40.3</ele>
        <time>2018-04-20T14:57:59.876Z</time>
      </trkpt>
      <trkpt lat="48.81063" lon="-3.36289">
        <ele>42.5</ele>
        <time>2018-04-20T14:58:03.740Z</time>
      </trkpt>
      <trkpt lat="48.81033" lon="-3.3634">
        <ele>45.4</ele>
        <time>2018-04-20T14:58:08.839Z</time>
      </trkpt>
      <trkpt lat="48.81" lon="-3.36384">
        <ele>48.9</ele>
        <time>2018-04-20T14:58:13.675Z</time>
      </trkpt>
      <trkpt lat="48.80976" lon="-3.36414">
        <ele>50.5</ele>
        <time>2018-04-20T14:58:17.149Z</time>
      </trkpt>
      <trkpt lat="48.80952" lon="-3.36441">
        <ele>52.4</ele>
        <time>2018-04-20T14:58:20.465Z</time>
      </trkpt>
      <trkpt lat="48.80937" lon="-3.36458">
        <ele>53.5</ele>
        <time>2018-04-20T14:58:22.557Z</time>
      </trkpt>
      <trkpt lat="48.80916" lon="-3.36482">
        <ele>55</ele>
        <time>2018-04-20T14:58:25.448Z</time>
      </trkpt>
      <trkpt lat="48.80904" lon="-3.36498">
        <ele>56</ele>
        <time>2018-04-20T14:58:27.243Z</time>
      </trkpt>
      <trkpt lat="48.80894" lon="-3.36515">
        <ele>56.6</ele>
        <time>2018-04-20T14:58:28.879Z</time>
      </trkpt>
      <trkpt lat="48.80886" lon="-3.36531">
        <ele>57.2</ele>
        <time>2018-04-20T14:58:30.427Z</time>
      </trkpt>
      <trkpt lat="48.80879" lon="-3.36547">
        <ele>58.1</ele>
        <time>2018-04-20T14:58:31.825Z</time>
      </trkpt>
      <trkpt lat="48.80868" lon="-3.36576">
        <ele>58.7</ele>
        <time>2018-04-20T14:58:34.247Z</time>
      </trkpt>
      <trkpt lat="48.80854" lon="-3.36612">
        <ele>59.3</ele>
        <time>2018-04-20T14:58:37.272Z</time>
      </trkpt>
      <trkpt lat="48.80851" lon="-3.36623">
        <ele>59.5</ele>
        <time>2018-04-20T14:58:38.228Z</time>
      </trkpt>
      <trkpt lat="48.80844" lon="-3.36647">
        <ele>59.6</ele>
        <time>2018-04-20T14:58:40.116Z</time>
      </trkpt>
      <trkpt lat="48.80833" lon="-3.36697">
        <ele>59.3</ele>
        <time>2018-04-20T14:58:43.970Z</time>
      </trkpt>
      <trkpt lat="48.80828" lon="-3.36732">
        <ele>59.3</ele>
        <time>2018-04-20T14:58:46.605Z</time>
      </trkpt>
      <trkpt lat="48.80827" lon="-3.36753">
        <ele>59.1</ele>
        <time>2018-04-20T14:58:48.144Z</time>
      </trkpt>
      <trkpt lat="48.80826" lon="-3.36774">
        <ele>58.9</ele>
        <time>2018-04-20T14:58:49.671Z</time>
      </trkpt>
      <trkpt lat="48.80826" lon="-3.36805">
        <ele>58.6</ele>
        <time>2018-04-20T14:58:51.979Z</time>
      </trkpt>
      <trkpt lat="48.80824" lon="-3.36827">
        <ele>58</ele>
        <time>2018-04-20T14:58:53.610Z</time>
      </trkpt>
      <trkpt lat="48.8082" lon="-3.36849">
        <ele>58</ele>
        <time>2018-04-20T14:58:55.244Z</time>
      </trkpt>
      <trkpt lat="48.80814" lon="-3.3687">
        <ele>57.7</ele>
        <time>2018-04-20T14:58:56.943Z</time>
      </trkpt>
      <trkpt lat="48.80803" lon="-3.36898">
        <ele>58.3</ele>
        <time>2018-04-20T14:58:59.324Z</time>
      </trkpt>
      <trkpt lat="48.808" lon="-3.36917">
        <ele>58.8</ele>
        <time>2018-04-20T14:59:00.778Z</time>
      </trkpt>
      <trkpt lat="48.8081" lon="-3.36945">
        <ele>60.5</ele>
        <time>2018-04-20T14:59:03.139Z</time>
      </trkpt>
      <trkpt lat="48.80812" lon="-3.36965">
        <ele>61.1</ele>
        <time>2018-04-20T14:59:04.584Z</time>
      </trkpt>
      <trkpt lat="48.80813" lon="-3.36975">
        <ele>61.5</ele>
        <time>2018-04-20T14:59:05.357Z</time>
      </trkpt>
      <trkpt lat="48.80812" lon="-3.36995">
        <ele>62</ele>
        <time>2018-04-20T14:59:06.823Z</time>
      </trkpt>
      <trkpt lat="48.80814" lon="-3.37039">
        <ele>63.3</ele>
        <time>2018-04-20T14:59:10.028Z</time>
      </trkpt>
      <trkpt lat="48.80815" lon="-3.37061">
        <ele>64</ele>
        <time>2018-04-20T14:59:11.671Z</time>
      </trkpt>
      <trkpt lat="48.80818" lon="-3.37078">
        <ele>64.4</ele>
        <time>2018-04-20T14:59:12.920Z</time>
      </trkpt>
      <trkpt lat="48.80828" lon="-3.37093">
        <ele>65.1</ele>
        <time>2018-04-20T14:59:14.517Z</time>
      </trkpt>
      <trkpt lat="48.80829" lon="-3.37105">
        <ele>65.4</ele>
        <time>2018-04-20T14:59:15.362Z</time>
      </trkpt>
      <trkpt lat="48.80813" lon="-3.37107">
        <ele>66.5</ele>
        <time>2018-04-20T14:59:17.093Z</time>
      </trkpt>
      <trkpt lat="48.80802" lon="-3.37118">
        <ele>66.7</ele>
        <time>2018-04-20T14:59:18.623Z</time>
      </trkpt>
      <trkpt lat="48.80799" lon="-3.37132">
        <ele>67.2</ele>
        <time>2018-04-20T14:59:19.623Z</time>
      </trkpt>
      <trkpt lat="48.808" lon="-3.37151">
        <ele>67.7</ele>
        <time>2018-04-20T14:59:21.065Z</time>
      </trkpt>
      <trkpt lat="48.80799" lon="-3.37174">
        <ele>68.2</ele>
        <time>2018-04-20T14:59:22.738Z</time>
      </trkpt>
      <trkpt lat="48.80791" lon="-3.3718">
        <ele>67.8</ele>
        <time>2018-04-20T14:59:23.733Z</time>
      </trkpt>
      <trkpt lat="48.80787" lon="-3.37205">
        <ele>67.3</ele>
        <time>2018-04-20T14:59:25.607Z</time>
      </trkpt>
      <trkpt lat="48.80784" lon="-3.37239">
        <ele>66.4</ele>
        <time>2018-04-20T14:59:28.096Z</time>
      </trkpt>
      <trkpt lat="48.80782" lon="-3.37254">
        <ele>66.1</ele>
        <time>2018-04-20T14:59:29.275Z</time>
      </trkpt>
      <trkpt lat="48.80779" lon="-3.37267">
        <ele>65.6</ele>
        <time>2018-04-20T14:59:30.251Z</time>
      </trkpt>
      <trkpt lat="48.8077" lon="-3.37289">
        <ele>64.6</ele>
        <time>2018-04-20T14:59:32.144Z</time>
      </trkpt>
      <trkpt lat="48.80752" lon="-3.37322">
        <ele>64.3</ele>
        <time>2018-04-20T14:59:35.325Z</time>
      </trkpt>
      <trkpt lat="48.80747" lon="-3.37334">
        <ele>64</ele>
        <time>2018-04-20T14:59:36.306Z</time>
      </trkpt>
      <trkpt lat="48.80744" lon="-3.37346">
        <ele>63.7</ele>
        <time>2018-04-20T14:59:37.283Z</time>
      </trkpt>
      <trkpt lat="48.80741" lon="-3.37359">
        <ele>63.3</ele>
        <time>2018-04-20T14:59:38.279Z</time>
      </trkpt>
      <trkpt lat="48.80734" lon="-3.37399">
        <ele>62.7</ele>
        <time>2018-04-20T14:59:41.355Z</time>
      </trkpt>
      <trkpt lat="48.80732" lon="-3.3741">
        <ele>62.7</ele>
        <time>2018-04-20T14:59:42.145Z</time>
      </trkpt>
      <trkpt lat="48.80727" lon="-3.3743">
        <ele>62.1</ele>
        <time>2018-04-20T14:59:43.727Z</time>
      </trkpt>
      <trkpt lat="48.8072" lon="-3.37442">
        <ele>62</ele>
        <time>2018-04-20T14:59:44.883Z</time>
      </trkpt>
      <trkpt lat="48.80717" lon="-3.37454">
        <ele>62</ele>
        <time>2018-04-20T14:59:45.853Z</time>
      </trkpt>
      <trkpt lat="48.80709" lon="-3.37473">
        <ele>61.8</ele>
        <time>2018-04-20T14:59:47.507Z</time>
      </trkpt>
      <trkpt lat="48.80695" lon="-3.37507">
        <ele>61</ele>
        <time>2018-04-20T14:59:50.432Z</time>
      </trkpt>
      <trkpt lat="48.80675" lon="-3.37549">
        <ele>61.3</ele>
        <time>2018-04-20T14:59:54.173Z</time>
      </trkpt>
      <trkpt lat="48.80672" lon="-3.3756">
        <ele>61.3</ele>
        <time>2018-04-20T14:59:55.066Z</time>
      </trkpt>
      <trkpt lat="48.80661" lon="-3.37576">
        <ele>61.5</ele>
        <time>2018-04-20T14:59:56.776Z</time>
      </trkpt>
      <trkpt lat="48.80643" lon="-3.37614">
        <ele>60.9</ele>
        <time>2018-04-20T15:00:00.226Z</time>
      </trkpt>
      <trkpt lat="48.80632" lon="-3.37633">
        <ele>60.9</ele>
        <time>2018-04-20T15:00:02.030Z</time>
      </trkpt>
      <trkpt lat="48.80626" lon="-3.37641">
        <ele>60.5</ele>
        <time>2018-04-20T15:00:02.980Z</time>
      </trkpt>
      <trkpt lat="48.80613" lon="-3.37653">
        <ele>60.2</ele>
        <time>2018-04-20T15:00:04.673Z</time>
      </trkpt>
      <trkpt lat="48.80605" lon="-3.37658">
        <ele>60.1</ele>
        <time>2018-04-20T15:00:05.632Z</time>
      </trkpt>
      <trkpt lat="48.80575" lon="-3.3768">
        <ele>59.6</ele>
        <time>2018-04-20T15:00:09.328Z</time>
      </trkpt>
      <trkpt lat="48.80545" lon="-3.37698">
        <ele>59.7</ele>
        <time>2018-04-20T15:00:12.876Z</time>
      </trkpt>
      <trkpt lat="48.80533" lon="-3.37709">
        <ele>59.3</ele>
        <time>2018-04-20T15:00:14.468Z</time>
      </trkpt>
      <trkpt lat="48.80521" lon="-3.37727">
        <ele>58.8</ele>
        <time>2018-04-20T15:00:16.314Z</time>
      </trkpt>
      <trkpt lat="48.80507" lon="-3.37759">
        <ele>56.7</ele>
        <time>2018-04-20T15:00:19.115Z</time>
      </trkpt>
      <trkpt lat="48.80493" lon="-3.37799">
        <ele>55.4</ele>
        <time>2018-04-20T15:00:22.455Z</time>
      </trkpt>
      <trkpt lat="48.80484" lon="-3.37832">
        <ele>54.5</ele>
        <time>2018-04-20T15:00:25.127Z</time>
      </trkpt>
      <trkpt lat="48.8048" lon="-3.37845">
        <ele>54.2</ele>
        <time>2018-04-20T15:00:26.115Z</time>
      </trkpt>
      <trkpt lat="48.80476" lon="-3.37867">
        <ele>53.9</ele>
        <time>2018-04-20T15:00:27.796Z</time>
      </trkpt>
      <trkpt lat="48.80468" lon="-3.37888">
        <ele>53.4</ele>
        <time>2018-04-20T15:00:29.614Z</time>
      </trkpt>
      <trkpt lat="48.80464" lon="-3.379">
        <ele>53.2</ele>
        <time>2018-04-20T15:00:30.597Z</time>
      </trkpt>
      <trkpt lat="48.80461" lon="-3.37913">
        <ele>53</ele>
        <time>2018-04-20T15:00:31.555Z</time>
      </trkpt>
      <trkpt lat="48.80455" lon="-3.37935">
        <ele>52.6</ele>
        <time>2018-04-20T15:00:33.297Z</time>
      </trkpt>
      <trkpt lat="48.80451" lon="-3.37966">
        <ele>52.2</ele>
        <time>2018-04-20T15:00:35.626Z</time>
      </trkpt>
      <trkpt lat="48.80448" lon="-3.37981">
        <ele>52</ele>
        <time>2018-04-20T15:00:36.786Z</time>
      </trkpt>
      <trkpt lat="48.80445" lon="-3.38006">
        <ele>51.9</ele>
        <time>2018-04-20T15:00:38.654Z</time>
      </trkpt>
      <trkpt lat="48.80442" lon="-3.38019">
        <ele>51.4</ele>
        <time>2018-04-20T15:00:39.647Z</time>
      </trkpt>
      <trkpt lat="48.80441" lon="-3.38031">
        <ele>51</ele>
        <time>2018-04-20T15:00:40.576Z</time>
      </trkpt>
      <trkpt lat="48.80441" lon="-3.38056">
        <ele>50.1</ele>
        <time>2018-04-20T15:00:42.362Z</time>
      </trkpt>
      <trkpt lat="48.80446" lon="-3.38079">
        <ele>48.6</ele>
        <time>2018-04-20T15:00:44.179Z</time>
      </trkpt>
      <trkpt lat="48.80449" lon="-3.38092">
        <ele>47.8</ele>
        <time>2018-04-20T15:00:45.202Z</time>
      </trkpt>
      <trkpt lat="48.8046" lon="-3.3814">
        <ele>45.2</ele>
        <time>2018-04-20T15:00:48.894Z</time>
      </trkpt>
      <trkpt lat="48.80461" lon="-3.38153">
        <ele>45</ele>
        <time>2018-04-20T15:00:49.852Z</time>
      </trkpt>
      <trkpt lat="48.80462" lon="-3.38189">
        <ele>43</ele>
        <time>2018-04-20T15:00:52.499Z</time>
      </trkpt>
      <trkpt lat="48.80458" lon="-3.38228">
        <ele>40.6</ele>
        <time>2018-04-20T15:00:55.375Z</time>
      </trkpt>
      <trkpt lat="48.80451" lon="-3.38266">
        <ele>38.5</ele>
        <time>2018-04-20T15:00:58.251Z</time>
      </trkpt>
      <trkpt lat="48.80442" lon="-3.38301">
        <ele>37.1</ele>
        <time>2018-04-20T15:01:01.065Z</time>
      </trkpt>
      <trkpt lat="48.80433" lon="-3.38322">
        <ele>35.6</ele>
        <time>2018-04-20T15:01:02.883Z</time>
      </trkpt>
      <trkpt lat="48.80431" lon="-3.38334">
        <ele>35.1</ele>
        <time>2018-04-20T15:01:03.850Z</time>
      </trkpt>
      <trkpt lat="48.80419" lon="-3.38382">
        <ele>31.6</ele>
        <time>2018-04-20T15:01:07.595Z</time>
      </trkpt>
      <trkpt lat="48.80408" lon="-3.38416">
        <ele>28.5</ele>
        <time>2018-04-20T15:01:10.406Z</time>
      </trkpt>
      <trkpt lat="48.804" lon="-3.38453">
        <ele>25.7</ele>
        <time>2018-04-20T15:01:13.226Z</time>
      </trkpt>
      <trkpt lat="48.80392" lon="-3.38486">
        <ele>23</ele>
        <time>2018-04-20T15:01:15.875Z</time>
      </trkpt>
      <trkpt lat="48.80389" lon="-3.38501">
        <ele>21.8</ele>
        <time>2018-04-20T15:01:17.005Z</time>
      </trkpt>
      <trkpt lat="48.80387" lon="-3.38524">
        <ele>20</ele>
        <time>2018-04-20T15:01:18.669Z</time>
      </trkpt>
      <trkpt lat="48.80386" lon="-3.38538">
        <ele>18.6</ele>
        <time>2018-04-20T15:01:19.730Z</time>
      </trkpt>
      <trkpt lat="48.80387" lon="-3.38563">
        <ele>15.9</ele>
        <time>2018-04-20T15:01:21.620Z</time>
      </trkpt>
      <trkpt lat="48.80385" lon="-3.386">
        <ele>13.4</ele>
        <time>2018-04-20T15:01:24.311Z</time>
      </trkpt>
      <trkpt lat="48.80384" lon="-3.38614">
        <ele>12.2</ele>
        <time>2018-04-20T15:01:25.400Z</time>
      </trkpt>
      <trkpt lat="48.80381" lon="-3.38667">
        <ele>8.3</ele>
        <time>2018-04-20T15:01:29.266Z</time>
      </trkpt>
      <trkpt lat="48.80381" lon="-3.38678">
        <ele>7.8</ele>
        <time>2018-04-20T15:01:30.073Z</time>
      </trkpt>
      <trkpt lat="48.80383" lon="-3.38724">
        <ele>5.1</ele>
        <time>2018-04-20T15:01:33.501Z</time>
      </trkpt>
      <trkpt lat="48.80384" lon="-3.38737">
        <ele>4.6</ele>
        <time>2018-04-20T15:01:34.471Z</time>
      </trkpt>
      <trkpt lat="48.80385" lon="-3.3876">
        <ele>4.3</ele>
        <time>2018-04-20T15:01:36.161Z</time>
      </trkpt>
      <trkpt lat="48.80383" lon="-3.38775">
        <ele>4</ele>
        <time>2018-04-20T15:01:37.230Z</time>
      </trkpt>
      <trkpt lat="48.80378" lon="-3.3879">
        <ele>3.5</ele>
        <time>2018-04-20T15:01:38.493Z</time>
      </trkpt>
      <trkpt lat="48.80368" lon="-3.38801">
        <ele>3.7</ele>
        <time>2018-04-20T15:01:39.904Z</time>
      </trkpt>
      <trkpt lat="48.80361" lon="-3.38805">
        <ele>3.7</ele>
        <time>2018-04-20T15:01:40.686Z</time>
      </trkpt>
      <trkpt lat="48.80348" lon="-3.38805">
        <ele>3.4</ele>
        <time>2018-04-20T15:01:42.150Z</time>
      </trkpt>
      <trkpt lat="48.80326" lon="-3.38798">
        <ele>3.4</ele>
        <time>2018-04-20T15:01:44.646Z</time>
      </trkpt>
      <trkpt lat="48.80311" lon="-3.38792">
        <ele>3.6</ele>
        <time>2018-04-20T15:01:46.421Z</time>
      </trkpt>
      <trkpt lat="48.80294" lon="-3.38789">
        <ele>3.7</ele>
        <time>2018-04-20T15:01:48.277Z</time>
      </trkpt>
      <trkpt lat="48.80285" lon="-3.38788">
        <ele>3.9</ele>
        <time>2018-04-20T15:01:49.240Z</time>
      </trkpt>
      <trkpt lat="48.80276" lon="-3.3879">
        <ele>3.9</ele>
        <time>2018-04-20T15:01:50.248Z</time>
      </trkpt>
      <trkpt lat="48.80267" lon="-3.38793">
        <ele>4</ele>
        <time>2018-04-20T15:01:51.286Z</time>
      </trkpt>
      <trkpt lat="48.80258" lon="-3.38799">
        <ele>4.3</ele>
        <time>2018-04-20T15:01:52.387Z</time>
      </trkpt>
      <trkpt lat="48.80249" lon="-3.38807">
        <ele>4.8</ele>
        <time>2018-04-20T15:01:53.550Z</time>
      </trkpt>
      <trkpt lat="48.8024" lon="-3.38816">
        <ele>5.2</ele>
        <time>2018-04-20T15:01:54.765Z</time>
      </trkpt>
      <trkpt lat="48.80232" lon="-3.38828">
        <ele>5.7</ele>
        <time>2018-04-20T15:01:56.008Z</time>
      </trkpt>
      <trkpt lat="48.80207" lon="-3.38865">
        <ele>8.8</ele>
        <time>2018-04-20T15:01:59.930Z</time>
      </trkpt>
      <trkpt lat="48.80198" lon="-3.38877">
        <ele>9.9</ele>
        <time>2018-04-20T15:02:01.216Z</time>
      </trkpt>
      <trkpt lat="48.80191" lon="-3.38889">
        <ele>10.6</ele>
        <time>2018-04-20T15:02:02.396Z</time>
      </trkpt>
      <trkpt lat="48.8018" lon="-3.38912">
        <ele>12.5</ele>
        <time>2018-04-20T15:02:04.508Z</time>
      </trkpt>
      <trkpt lat="48.80169" lon="-3.38931">
        <ele>14</ele>
        <time>2018-04-20T15:02:06.351Z</time>
      </trkpt>
      <trkpt lat="48.8016" lon="-3.38947">
        <ele>14.9</ele>
        <time>2018-04-20T15:02:07.922Z</time>
      </trkpt>
      <trkpt lat="48.80152" lon="-3.38961">
        <ele>15.6</ele>
        <time>2018-04-20T15:02:09.248Z</time>
      </trkpt>
      <trkpt lat="48.80148" lon="-3.38973">
        <ele>16.2</ele>
        <time>2018-04-20T15:02:10.285Z</time>
      </trkpt>
      <trkpt lat="48.8014" lon="-3.39013">
        <ele>16.8</ele>
        <time>2018-04-20T15:02:13.338Z</time>
      </trkpt>
      <trkpt lat="48.80136" lon="-3.39039">
        <ele>16.7</ele>
        <time>2018-04-20T15:02:15.300Z</time>
      </trkpt>
      <trkpt lat="48.80133" lon="-3.39062">
        <ele>16.7</ele>
        <time>2018-04-20T15:02:17.025Z</time>
      </trkpt>
      <trkpt lat="48.80131" lon="-3.39086">
        <ele>16.2</ele>
        <time>2018-04-20T15:02:18.748Z</time>
      </trkpt>
      <trkpt lat="48.80132" lon="-3.39133">
        <ele>14.9</ele>
        <time>2018-04-20T15:02:22.218Z</time>
      </trkpt>
      <trkpt lat="48.8013" lon="-3.39156">
        <ele>13.6</ele>
        <time>2018-04-20T15:02:23.879Z</time>
      </trkpt>
      <trkpt lat="48.80129" lon="-3.39167">
        <ele>13.2</ele>
        <time>2018-04-20T15:02:24.757Z</time>
      </trkpt>
      <trkpt lat="48.80126" lon="-3.39191">
        <ele>11.5</ele>
        <time>2018-04-20T15:02:26.540Z</time>
      </trkpt>
      <trkpt lat="48.80125" lon="-3.39205">
        <ele>10.7</ele>
        <time>2018-04-20T15:02:27.533Z</time>
      </trkpt>
      <trkpt lat="48.80125" lon="-3.39248">
        <ele>9.1</ele>
        <time>2018-04-20T15:02:30.686Z</time>
      </trkpt>
      <trkpt lat="48.80124" lon="-3.39281">
        <ele>8.2</ele>
        <time>2018-04-20T15:02:33.136Z</time>
      </trkpt>
      <trkpt lat="48.80123" lon="-3.39317">
        <ele>7.4</ele>
        <time>2018-04-20T15:02:35.737Z</time>
      </trkpt>
      <trkpt lat="48.80122" lon="-3.3935">
        <ele>7</ele>
        <time>2018-04-20T15:02:38.220Z</time>
      </trkpt>
      <trkpt lat="48.8012" lon="-3.39369">
        <ele>7</ele>
        <time>2018-04-20T15:02:39.570Z</time>
      </trkpt>
      <trkpt lat="48.80116" lon="-3.39387">
        <ele>7</ele>
        <time>2018-04-20T15:02:41.001Z</time>
      </trkpt>
      <trkpt lat="48.80111" lon="-3.39406">
        <ele>7.1</ele>
        <time>2018-04-20T15:02:42.522Z</time>
      </trkpt>
      <trkpt lat="48.80097" lon="-3.39445">
        <ele>7.6</ele>
        <time>2018-04-20T15:02:45.733Z</time>
      </trkpt>
      <trkpt lat="48.80085" lon="-3.39483">
        <ele>7.7</ele>
        <time>2018-04-20T15:02:48.834Z</time>
      </trkpt>
      <trkpt lat="48.80081" lon="-3.39502">
        <ele>7.9</ele>
        <time>2018-04-20T15:02:50.334Z</time>
      </trkpt>
      <trkpt lat="48.80072" lon="-3.39542">
        <ele>8.4</ele>
        <time>2018-04-20T15:02:53.366Z</time>
      </trkpt>
      <trkpt lat="48.80067" lon="-3.39562">
        <ele>8.6</ele>
        <time>2018-04-20T15:02:54.918Z</time>
      </trkpt>
      <trkpt lat="48.80058" lon="-3.39591">
        <ele>8.7</ele>
        <time>2018-04-20T15:02:57.325Z</time>
      </trkpt>
      <trkpt lat="48.80042" lon="-3.39631">
        <ele>9.2</ele>
        <time>2018-04-20T15:03:00.743Z</time>
      </trkpt>
      <trkpt lat="48.8003" lon="-3.39663">
        <ele>9.5</ele>
        <time>2018-04-20T15:03:03.437Z</time>
      </trkpt>
      <trkpt lat="48.8002" lon="-3.39684">
        <ele>9.9</ele>
        <time>2018-04-20T15:03:05.355Z</time>
      </trkpt>
      <trkpt lat="48.80001" lon="-3.3973">
        <ele>10.9</ele>
        <time>2018-04-20T15:03:09.324Z</time>
      </trkpt>
      <trkpt lat="48.7999" lon="-3.39756">
        <ele>11.8</ele>
        <time>2018-04-20T15:03:11.597Z</time>
      </trkpt>
      <trkpt lat="48.79986" lon="-3.39771">
        <ele>12.3</ele>
        <time>2018-04-20T15:03:12.797Z</time>
      </trkpt>
      <trkpt lat="48.79983" lon="-3.39787">
        <ele>12.8</ele>
        <time>2018-04-20T15:03:14.010Z</time>
      </trkpt>
      <trkpt lat="48.79981" lon="-3.3982">
        <ele>14.5</ele>
        <time>2018-04-20T15:03:16.377Z</time>
      </trkpt>
      <trkpt lat="48.79981" lon="-3.3988">
        <ele>16.4</ele>
        <time>2018-04-20T15:03:20.800Z</time>
      </trkpt>
      <trkpt lat="48.79981" lon="-3.3991">
        <ele>17.2</ele>
        <time>2018-04-20T15:03:23.012Z</time>
      </trkpt>
      <trkpt lat="48.79985" lon="-3.39959">
        <ele>18.8</ele>
        <time>2018-04-20T15:03:26.648Z</time>
      </trkpt>
      <trkpt lat="48.79985" lon="-3.39994">
        <ele>20.4</ele>
        <time>2018-04-20T15:03:29.179Z</time>
      </trkpt>
      <trkpt lat="48.79984" lon="-3.40012">
        <ele>21.2</ele>
        <time>2018-04-20T15:03:30.514Z</time>
      </trkpt>
      <trkpt lat="48.79981" lon="-3.4003">
        <ele>22.2</ele>
        <time>2018-04-20T15:03:31.913Z</time>
      </trkpt>
      <trkpt lat="48.79973" lon="-3.40064">
        <ele>24</ele>
        <time>2018-04-20T15:03:34.504Z</time>
      </trkpt>
      <trkpt lat="48.79968" lon="-3.40078">
        <ele>25.2</ele>
        <time>2018-04-20T15:03:35.703Z</time>
      </trkpt>
      <trkpt lat="48.79947" lon="-3.40122">
        <ele>28.9</ele>
        <time>2018-04-20T15:03:39.689Z</time>
      </trkpt>
      <trkpt lat="48.7994" lon="-3.40137">
        <ele>30.1</ele>
        <time>2018-04-20T15:03:41.071Z</time>
      </trkpt>
      <trkpt lat="48.79917" lon="-3.40184">
        <ele>32.9</ele>
        <time>2018-04-20T15:03:45.327Z</time>
      </trkpt>
      <trkpt lat="48.79892" lon="-3.40244">
        <ele>36.9</ele>
        <time>2018-04-20T15:03:50.571Z</time>
      </trkpt>
      <trkpt lat="48.7988" lon="-3.40274">
        <ele>38.4</ele>
        <time>2018-04-20T15:03:53.117Z</time>
      </trkpt>
      <trkpt lat="48.79867" lon="-3.40321">
        <ele>40.6</ele>
        <time>2018-04-20T15:03:56.821Z</time>
      </trkpt>
      <trkpt lat="48.79864" lon="-3.40335">
        <ele>41.1</ele>
        <time>2018-04-20T15:03:57.979Z</time>
      </trkpt>
      <trkpt lat="48.79861" lon="-3.40351">
        <ele>41.7</ele>
        <time>2018-04-20T15:03:59.137Z</time>
      </trkpt>
      <trkpt lat="48.79857" lon="-3.4038">
        <ele>43</ele>
        <time>2018-04-20T15:04:01.342Z</time>
      </trkpt>
      <trkpt lat="48.79852" lon="-3.40423">
        <ele>44.4</ele>
        <time>2018-04-20T15:04:04.540Z</time>
      </trkpt>
      <trkpt lat="48.7985" lon="-3.40453">
        <ele>45</ele>
        <time>2018-04-20T15:04:06.779Z</time>
      </trkpt>
      <trkpt lat="48.79846" lon="-3.40515">
        <ele>46.8</ele>
        <time>2018-04-20T15:04:11.326Z</time>
      </trkpt>
      <trkpt lat="48.79845" lon="-3.40531">
        <ele>47.6</ele>
        <time>2018-04-20T15:04:12.462Z</time>
      </trkpt>
      <trkpt lat="48.79843" lon="-3.40546">
        <ele>48.6</ele>
        <time>2018-04-20T15:04:13.587Z</time>
      </trkpt>
      <trkpt lat="48.79839" lon="-3.40559">
        <ele>49.4</ele>
        <time>2018-04-20T15:04:14.675Z</time>
      </trkpt>
      <trkpt lat="48.79835" lon="-3.40572">
        <ele>50.2</ele>
        <time>2018-04-20T15:04:15.710Z</time>
      </trkpt>
      <trkpt lat="48.79824" lon="-3.4059">
        <ele>51.2</ele>
        <time>2018-04-20T15:04:17.534Z</time>
      </trkpt>
      <trkpt lat="48.7981" lon="-3.40601">
        <ele>52.4</ele>
        <time>2018-04-20T15:04:19.260Z</time>
      </trkpt>
      <trkpt lat="48.79797" lon="-3.40608">
        <ele>53</ele>
        <time>2018-04-20T15:04:20.780Z</time>
      </trkpt>
      <trkpt lat="48.79786" lon="-3.40617">
        <ele>53.4</ele>
        <time>2018-04-20T15:04:22.179Z</time>
      </trkpt>
      <trkpt lat="48.79764" lon="-3.40641">
        <ele>53.5</ele>
        <time>2018-04-20T15:04:25.199Z</time>
      </trkpt>
      <trkpt lat="48.79755" lon="-3.4065">
        <ele>53.5</ele>
        <time>2018-04-20T15:04:26.432Z</time>
      </trkpt>
      <trkpt lat="48.7974" lon="-3.40665">
        <ele>53.4</ele>
        <time>2018-04-20T15:04:28.375Z</time>
      </trkpt>
      <trkpt lat="48.7973" lon="-3.40673">
        <ele>53.3</ele>
        <time>2018-04-20T15:04:29.637Z</time>
      </trkpt>
      <trkpt lat="48.79724" lon="-3.40675">
        <ele>53.5</ele>
        <time>2018-04-20T15:04:30.293Z</time>
      </trkpt>
      <trkpt lat="48.79713" lon="-3.40678">
        <ele>53.8</ele>
        <time>2018-04-20T15:04:31.551Z</time>
      </trkpt>
      <trkpt lat="48.79689" lon="-3.40678">
        <ele>54</ele>
        <time>2018-04-20T15:04:34.217Z</time>
      </trkpt>
      <trkpt lat="48.79671" lon="-3.4068">
        <ele>54.4</ele>
        <time>2018-04-20T15:04:36.277Z</time>
      </trkpt>
      <trkpt lat="48.79645" lon="-3.40681">
        <ele>55.1</ele>
        <time>2018-04-20T15:04:39.191Z</time>
      </trkpt>
      <trkpt lat="48.79638" lon="-3.40682">
        <ele>55.2</ele>
        <time>2018-04-20T15:04:39.925Z</time>
      </trkpt>
      <trkpt lat="48.79626" lon="-3.4069">
        <ele>56</ele>
        <time>2018-04-20T15:04:41.335Z</time>
      </trkpt>
      <trkpt lat="48.79606" lon="-3.40711">
        <ele>56.9</ele>
        <time>2018-04-20T15:04:44.050Z</time>
      </trkpt>
      <trkpt lat="48.79584" lon="-3.40733">
        <ele>57.3</ele>
        <time>2018-04-20T15:04:47.047Z</time>
      </trkpt>
      <trkpt lat="48.79563" lon="-3.40749">
        <ele>57</ele>
        <time>2018-04-20T15:04:49.583Z</time>
      </trkpt>
      <trkpt lat="48.79534" lon="-3.40775">
        <ele>56.7</ele>
        <time>2018-04-20T15:04:53.328Z</time>
      </trkpt>
      <trkpt lat="48.79511" lon="-3.40798">
        <ele>56.5</ele>
        <time>2018-04-20T15:04:56.451Z</time>
      </trkpt>
      <trkpt lat="48.79492" lon="-3.40816">
        <ele>56.8</ele>
        <time>2018-04-20T15:04:58.980Z</time>
      </trkpt>
      <trkpt lat="48.79477" lon="-3.4082">
        <ele>56.9</ele>
        <time>2018-04-20T15:05:00.577Z</time>
      </trkpt>
      <trkpt lat="48.7947" lon="-3.40813">
        <ele>56.9</ele>
        <time>2018-04-20T15:05:01.510Z</time>
      </trkpt>
      <trkpt lat="48.7946" lon="-3.40801">
        <ele>57</ele>
        <time>2018-04-20T15:05:03.011Z</time>
      </trkpt>
      <trkpt lat="48.79451" lon="-3.40794">
        <ele>57.3</ele>
        <time>2018-04-20T15:05:04.048Z</time>
      </trkpt>
      <trkpt lat="48.79433" lon="-3.40782">
        <ele>57.4</ele>
        <time>2018-04-20T15:05:06.235Z</time>
      </trkpt>
      <trkpt lat="48.79425" lon="-3.40778">
        <ele>57.5</ele>
        <time>2018-04-20T15:05:07.263Z</time>
      </trkpt>
      <trkpt lat="48.79395" lon="-3.40762">
        <ele>58.4</ele>
        <time>2018-04-20T15:05:10.721Z</time>
      </trkpt>
      <trkpt lat="48.79387" lon="-3.40761">
        <ele>58.7</ele>
        <time>2018-04-20T15:05:11.650Z</time>
      </trkpt>
      <trkpt lat="48.79375" lon="-3.40774">
        <ele>58.3</ele>
        <time>2018-04-20T15:05:13.283Z</time>
      </trkpt>
      <trkpt lat="48.79372" lon="-3.40785">
        <ele>58</ele>
        <time>2018-04-20T15:05:14.193Z</time>
      </trkpt>
      <trkpt lat="48.7937" lon="-3.4081">
        <ele>57.6</ele>
        <time>2018-04-20T15:05:16.025Z</time>
      </trkpt>
      <trkpt lat="48.79367" lon="-3.40834">
        <ele>57.5</ele>
        <time>2018-04-20T15:05:17.813Z</time>
      </trkpt>
      <trkpt lat="48.79364" lon="-3.40847">
        <ele>57</ele>
        <time>2018-04-20T15:05:18.811Z</time>
      </trkpt>
      <trkpt lat="48.79361" lon="-3.40865">
        <ele>57.2</ele>
        <time>2018-04-20T15:05:20.160Z</time>
      </trkpt>
      <trkpt lat="48.79362" lon="-3.40877">
        <ele>56.9</ele>
        <time>2018-04-20T15:05:21.082Z</time>
      </trkpt>
      <trkpt lat="48.79368" lon="-3.40901">
        <ele>56.6</ele>
        <time>2018-04-20T15:05:22.902Z</time>
      </trkpt>
      <trkpt lat="48.79375" lon="-3.4095">
        <ele>56.4</ele>
        <time>2018-04-20T15:05:26.586Z</time>
      </trkpt>
      <trkpt lat="48.79378" lon="-3.40969">
        <ele>56.2</ele>
        <time>2018-04-20T15:05:28.050Z</time>
      </trkpt>
      <trkpt lat="48.79383" lon="-3.40982">
        <ele>57.2</ele>
        <time>2018-04-20T15:05:29.086Z</time>
      </trkpt>
      <trkpt lat="48.79385" lon="-3.40993">
        <ele>57.1</ele>
        <time>2018-04-20T15:05:29.957Z</time>
      </trkpt>
      <trkpt lat="48.7939" lon="-3.41011">
        <ele>57.3</ele>
        <time>2018-04-20T15:05:31.409Z</time>
      </trkpt>
      <trkpt lat="48.79394" lon="-3.41028">
        <ele>57.1</ele>
        <time>2018-04-20T15:05:32.761Z</time>
      </trkpt>
      <trkpt lat="48.79396" lon="-3.41045">
        <ele>57.1</ele>
        <time>2018-04-20T15:05:33.987Z</time>
      </trkpt>
      <trkpt lat="48.79401" lon="-3.41068">
        <ele>57.1</ele>
        <time>2018-04-20T15:05:35.792Z</time>
      </trkpt>
      <trkpt lat="48.79405" lon="-3.4108">
        <ele>57.1</ele>
        <time>2018-04-20T15:05:36.772Z</time>
      </trkpt>
      <trkpt lat="48.79411" lon="-3.41102">
        <ele>57.3</ele>
        <time>2018-04-20T15:05:38.515Z</time>
      </trkpt>
      <trkpt lat="48.79419" lon="-3.4112">
        <ele>57.1</ele>
        <time>2018-04-20T15:05:40.118Z</time>
      </trkpt>
      <trkpt lat="48.79432" lon="-3.41138">
        <ele>56.8</ele>
        <time>2018-04-20T15:05:42.012Z</time>
      </trkpt>
      <trkpt lat="48.7944" lon="-3.41157">
        <ele>55.9</ele>
        <time>2018-04-20T15:05:43.708Z</time>
      </trkpt>
      <trkpt lat="48.79449" lon="-3.41205">
        <ele>53.3</ele>
        <time>2018-04-20T15:05:47.381Z</time>
      </trkpt>
      <trkpt lat="48.7945" lon="-3.41217">
        <ele>52.6</ele>
        <time>2018-04-20T15:05:48.279Z</time>
      </trkpt>
      <trkpt lat="48.79461" lon="-3.4126">
        <ele>49.7</ele>
        <time>2018-04-20T15:05:51.668Z</time>
      </trkpt>
      <trkpt lat="48.79462" lon="-3.41272">
        <ele>49.1</ele>
        <time>2018-04-20T15:05:52.554Z</time>
      </trkpt>
      <trkpt lat="48.79468" lon="-3.41296">
        <ele>48.1</ele>
        <time>2018-04-20T15:05:54.396Z</time>
      </trkpt>
      <trkpt lat="48.79471" lon="-3.41307">
        <ele>47.8</ele>
        <time>2018-04-20T15:05:55.316Z</time>
      </trkpt>
      <trkpt lat="48.79476" lon="-3.4133">
        <ele>46.7</ele>
        <time>2018-04-20T15:05:57.074Z</time>
      </trkpt>
      <trkpt lat="48.79477" lon="-3.41342">
        <ele>46.4</ele>
        <time>2018-04-20T15:05:57.948Z</time>
      </trkpt>
      <trkpt lat="48.79481" lon="-3.41364">
        <ele>46.1</ele>
        <time>2018-04-20T15:05:59.598Z</time>
      </trkpt>
      <trkpt lat="48.79487" lon="-3.41374">
        <ele>44.1</ele>
        <time>2018-04-20T15:06:00.657Z</time>
      </trkpt>
      <trkpt lat="48.79484" lon="-3.41398">
        <ele>43.9</ele>
        <time>2018-04-20T15:06:02.403Z</time>
      </trkpt>
      <trkpt lat="48.79487" lon="-3.41416">
        <ele>43.5</ele>
        <time>2018-04-20T15:06:03.784Z</time>
      </trkpt>
      <trkpt lat="48.79491" lon="-3.41429">
        <ele>43.8</ele>
        <time>2018-04-20T15:06:04.824Z</time>
      </trkpt>
      <trkpt lat="48.79491" lon="-3.41441">
        <ele>44</ele>
        <time>2018-04-20T15:06:05.751Z</time>
      </trkpt>
      <trkpt lat="48.7949" lon="-3.41464">
        <ele>42.9</ele>
        <time>2018-04-20T15:06:07.395Z</time>
      </trkpt>
      <trkpt lat="48.79487" lon="-3.41505">
        <ele>41.6</ele>
        <time>2018-04-20T15:06:10.435Z</time>
      </trkpt>
      <trkpt lat="48.79483" lon="-3.41529">
        <ele>41.3</ele>
        <time>2018-04-20T15:06:12.250Z</time>
      </trkpt>
      <trkpt lat="48.79477" lon="-3.41567">
        <ele>40.2</ele>
        <time>2018-04-20T15:06:15.091Z</time>
      </trkpt>
      <trkpt lat="48.79474" lon="-3.41592">
        <ele>39</ele>
        <time>2018-04-20T15:06:16.955Z</time>
      </trkpt>
      <trkpt lat="48.79473" lon="-3.41614">
        <ele>38.1</ele>
        <time>2018-04-20T15:06:18.625Z</time>
      </trkpt>
      <trkpt lat="48.79472" lon="-3.41648">
        <ele>36.9</ele>
        <time>2018-04-20T15:06:21.110Z</time>
      </trkpt>
      <trkpt lat="48.79472" lon="-3.41672">
        <ele>36.2</ele>
        <time>2018-04-20T15:06:22.879Z</time>
      </trkpt>
      <trkpt lat="48.79473" lon="-3.41684">
        <ele>35.4</ele>
        <time>2018-04-20T15:06:23.723Z</time>
      </trkpt>
      <trkpt lat="48.79477" lon="-3.4173">
        <ele>33.5</ele>
        <time>2018-04-20T15:06:27.128Z</time>
      </trkpt>
      <trkpt lat="48.7948" lon="-3.41752">
        <ele>32.6</ele>
        <time>2018-04-20T15:06:28.822Z</time>
      </trkpt>
      <trkpt lat="48.79483" lon="-3.41763">
        <ele>32</ele>
        <time>2018-04-20T15:06:29.706Z</time>
      </trkpt>
      <trkpt lat="48.79492" lon="-3.41794">
        <ele>30.8</ele>
        <time>2018-04-20T15:06:32.178Z</time>
      </trkpt>
      <trkpt lat="48.79506" lon="-3.41836">
        <ele>29</ele>
        <time>2018-04-20T15:06:35.605Z</time>
      </trkpt>
      <trkpt lat="48.7951" lon="-3.41846">
        <ele>28.5</ele>
        <time>2018-04-20T15:06:36.457Z</time>
      </trkpt>
      <trkpt lat="48.7952" lon="-3.41876">
        <ele>26.9</ele>
        <time>2018-04-20T15:06:38.958Z</time>
      </trkpt>
      <trkpt lat="48.79526" lon="-3.41897">
        <ele>26.3</ele>
        <time>2018-04-20T15:06:40.611Z</time>
      </trkpt>
      <trkpt lat="48.79534" lon="-3.41917">
        <ele>25.1</ele>
        <time>2018-04-20T15:06:42.345Z</time>
      </trkpt>
      <trkpt lat="48.7954" lon="-3.41938">
        <ele>24.3</ele>
        <time>2018-04-20T15:06:44.028Z</time>
      </trkpt>
      <trkpt lat="48.79554" lon="-3.4198">
        <ele>22.5</ele>
        <time>2018-04-20T15:06:47.463Z</time>
      </trkpt>
      <trkpt lat="48.79565" lon="-3.42024">
        <ele>20.8</ele>
        <time>2018-04-20T15:06:50.945Z</time>
      </trkpt>
      <trkpt lat="48.7957" lon="-3.42047">
        <ele>20</ele>
        <time>2018-04-20T15:06:52.675Z</time>
      </trkpt>
      <trkpt lat="48.79574" lon="-3.4207">
        <ele>19.3</ele>
        <time>2018-04-20T15:06:54.411Z</time>
      </trkpt>
      <trkpt lat="48.79577" lon="-3.4208">
        <ele>18.7</ele>
        <time>2018-04-20T15:06:55.244Z</time>
      </trkpt>
      <trkpt lat="48.79584" lon="-3.42128">
        <ele>17</ele>
        <time>2018-04-20T15:06:58.803Z</time>
      </trkpt>
      <trkpt lat="48.79588" lon="-3.42173">
        <ele>15</ele>
        <time>2018-04-20T15:07:02.184Z</time>
      </trkpt>
      <trkpt lat="48.79593" lon="-3.42196">
        <ele>14.1</ele>
        <time>2018-04-20T15:07:03.908Z</time>
      </trkpt>
      <trkpt lat="48.79596" lon="-3.4222">
        <ele>13.3</ele>
        <time>2018-04-20T15:07:05.750Z</time>
      </trkpt>
      <trkpt lat="48.79596" lon="-3.42245">
        <ele>12.1</ele>
        <time>2018-04-20T15:07:07.563Z</time>
      </trkpt>
      <trkpt lat="48.79599" lon="-3.42292">
        <ele>10.2</ele>
        <time>2018-04-20T15:07:11.050Z</time>
      </trkpt>
      <trkpt lat="48.79598" lon="-3.42316">
        <ele>9.1</ele>
        <time>2018-04-20T15:07:12.785Z</time>
      </trkpt>
      <trkpt lat="48.79602" lon="-3.42366">
        <ele>7.4</ele>
        <time>2018-04-20T15:07:16.487Z</time>
      </trkpt>
      <trkpt lat="48.79602" lon="-3.42378">
        <ele>7</ele>
        <time>2018-04-20T15:07:17.403Z</time>
      </trkpt>
      <trkpt lat="48.79605" lon="-3.42398">
        <ele>6.7</ele>
        <time>2018-04-20T15:07:18.836Z</time>
      </trkpt>
      <trkpt lat="48.79609" lon="-3.42434">
        <ele>6.7</ele>
        <time>2018-04-20T15:07:21.522Z</time>
      </trkpt>
      <trkpt lat="48.7961" lon="-3.42448">
        <ele>6.4</ele>
        <time>2018-04-20T15:07:22.566Z</time>
      </trkpt>
      <trkpt lat="48.79612" lon="-3.42477">
        <ele>6.4</ele>
        <time>2018-04-20T15:07:24.703Z</time>
      </trkpt>
      <trkpt lat="48.79614" lon="-3.42506">
        <ele>6.3</ele>
        <time>2018-04-20T15:07:26.832Z</time>
      </trkpt>
      <trkpt lat="48.79615" lon="-3.4252">
        <ele>6.3</ele>
        <time>2018-04-20T15:07:27.862Z</time>
      </trkpt>
      <trkpt lat="48.79618" lon="-3.42554">
        <ele>6.1</ele>
        <time>2018-04-20T15:07:30.408Z</time>
      </trkpt>
      <trkpt lat="48.7962" lon="-3.42568">
        <ele>6</ele>
        <time>2018-04-20T15:07:31.420Z</time>
      </trkpt>
      <trkpt lat="48.79624" lon="-3.42588">
        <ele>5.7</ele>
        <time>2018-04-20T15:07:32.938Z</time>
      </trkpt>
      <trkpt lat="48.79632" lon="-3.42627">
        <ele>5.7</ele>
        <time>2018-04-20T15:07:35.939Z</time>
      </trkpt>
      <trkpt lat="48.79637" lon="-3.42653">
        <ele>5.6</ele>
        <time>2018-04-20T15:07:37.948Z</time>
      </trkpt>
      <trkpt lat="48.79644" lon="-3.42687">
        <ele>5.6</ele>
        <time>2018-04-20T15:07:40.511Z</time>
      </trkpt>
      <trkpt lat="48.79647" lon="-3.427">
        <ele>5.6</ele>
        <time>2018-04-20T15:07:41.550Z</time>
      </trkpt>
      <trkpt lat="48.79653" lon="-3.42732">
        <ele>5.5</ele>
        <time>2018-04-20T15:07:44.008Z</time>
      </trkpt>
      <trkpt lat="48.79658" lon="-3.42757">
        <ele>5.5</ele>
        <time>2018-04-20T15:07:45.883Z</time>
      </trkpt>
      <trkpt lat="48.79667" lon="-3.42806">
        <ele>5.3</ele>
        <time>2018-04-20T15:07:49.647Z</time>
      </trkpt>
      <trkpt lat="48.79674" lon="-3.42844">
        <ele>5</ele>
        <time>2018-04-20T15:07:52.555Z</time>
      </trkpt>
      <trkpt lat="48.7968" lon="-3.42884">
        <ele>4.9</ele>
        <time>2018-04-20T15:07:55.563Z</time>
      </trkpt>
      <trkpt lat="48.79687" lon="-3.42924">
        <ele>4.5</ele>
        <time>2018-04-20T15:07:58.571Z</time>
      </trkpt>
      <trkpt lat="48.79689" lon="-3.42938">
        <ele>4.1</ele>
        <time>2018-04-20T15:07:59.578Z</time>
      </trkpt>
      <trkpt lat="48.79694" lon="-3.42971">
        <ele>4.2</ele>
        <time>2018-04-20T15:08:02.088Z</time>
      </trkpt>
      <trkpt lat="48.79695" lon="-3.42983">
        <ele>4</ele>
        <time>2018-04-20T15:08:03.031Z</time>
      </trkpt>
      <trkpt lat="48.79702" lon="-3.43022">
        <ele>4</ele>
        <time>2018-04-20T15:08:05.940Z</time>
      </trkpt>
      <trkpt lat="48.79708" lon="-3.43062">
        <ele>3.3</ele>
        <time>2018-04-20T15:08:08.939Z</time>
      </trkpt>
      <trkpt lat="48.79715" lon="-3.43097">
        <ele>2.9</ele>
        <time>2018-04-20T15:08:11.649Z</time>
      </trkpt>
      <trkpt lat="48.79721" lon="-3.43132">
        <ele>2.4</ele>
        <time>2018-04-20T15:08:14.277Z</time>
      </trkpt>
      <trkpt lat="48.79726" lon="-3.43164">
        <ele>2.2</ele>
        <time>2018-04-20T15:08:16.678Z</time>
      </trkpt>
      <trkpt lat="48.79727" lon="-3.43181">
        <ele>2.2</ele>
        <time>2018-04-20T15:08:17.919Z</time>
      </trkpt>
      <trkpt lat="48.79727" lon="-3.43198">
        <ele>2.1</ele>
        <time>2018-04-20T15:08:19.153Z</time>
      </trkpt>
      <trkpt lat="48.79728" lon="-3.4323">
        <ele>2.7</ele>
        <time>2018-04-20T15:08:21.548Z</time>
      </trkpt>
      <trkpt lat="48.79728" lon="-3.43247">
        <ele>2.5</ele>
        <time>2018-04-20T15:08:22.743Z</time>
      </trkpt>
      <trkpt lat="48.79726" lon="-3.43279">
        <ele>2.6</ele>
        <time>2018-04-20T15:08:25.108Z</time>
      </trkpt>
      <trkpt lat="48.79724" lon="-3.43311">
        <ele>2.5</ele>
        <time>2018-04-20T15:08:27.484Z</time>
      </trkpt>
      <trkpt lat="48.79724" lon="-3.43327">
        <ele>2.6</ele>
        <time>2018-04-20T15:08:28.671Z</time>
      </trkpt>
      <trkpt lat="48.79723" lon="-3.43367">
        <ele>2.5</ele>
        <time>2018-04-20T15:08:31.565Z</time>
      </trkpt>
      <trkpt lat="48.79723" lon="-3.43391">
        <ele>2.5</ele>
        <time>2018-04-20T15:08:33.338Z</time>
      </trkpt>
      <trkpt lat="48.79726" lon="-3.43438">
        <ele>2.4</ele>
        <time>2018-04-20T15:08:36.821Z</time>
      </trkpt>
      <trkpt lat="48.7973" lon="-3.4347">
        <ele>2.4</ele>
        <time>2018-04-20T15:08:39.201Z</time>
      </trkpt>
      <trkpt lat="48.79737" lon="-3.43518">
        <ele>2.4</ele>
        <time>2018-04-20T15:08:42.790Z</time>
      </trkpt>
      <trkpt lat="48.79746" lon="-3.43557">
        <ele>2.8</ele>
        <time>2018-04-20T15:08:45.821Z</time>
      </trkpt>
      <trkpt lat="48.79754" lon="-3.43588">
        <ele>2.5</ele>
        <time>2018-04-20T15:08:48.276Z</time>
      </trkpt>
      <trkpt lat="48.79766" lon="-3.43627">
        <ele>2.5</ele>
        <time>2018-04-20T15:08:51.374Z</time>
      </trkpt>
      <trkpt lat="48.79777" lon="-3.43665">
        <ele>2.9</ele>
        <time>2018-04-20T15:08:54.477Z</time>
      </trkpt>
      <trkpt lat="48.79783" lon="-3.43688">
        <ele>2.9</ele>
        <time>2018-04-20T15:08:56.265Z</time>
      </trkpt>
      <trkpt lat="48.79784" lon="-3.43706">
        <ele>2.6</ele>
        <time>2018-04-20T15:08:57.592Z</time>
      </trkpt>
      <trkpt lat="48.79785" lon="-3.43745">
        <ele>2.8</ele>
        <time>2018-04-20T15:09:00.447Z</time>
      </trkpt>
      <trkpt lat="48.79793" lon="-3.44013">
        <ele>5</ele>
        <time>2021-03-04T09:47:20Z</time>
      </trkpt>
      <trkpt lat="48.79792" lon="-3.44066">
        <ele>5</ele>
        <time>2021-03-04T09:47:26Z</time>
      </trkpt>
      <trkpt lat="48.79796" lon="-3.44089">
        <ele>5</ele>
        <time>2021-03-04T09:47:29Z</time>
      </trkpt>
      <trkpt lat="48.79802" lon="-3.44105">
        <ele>5</ele>
        <time>2021-03-04T09:47:31Z</time>
      </trkpt>
      <trkpt lat="48.79804" lon="-3.44124">
        <ele>6</ele>
        <time>2021-03-04T09:47:33Z</time>
      </trkpt>
      <trkpt lat="48.79807" lon="-3.44137">
        <ele>6</ele>
        <time>2021-03-04T09:47:35Z</time>
      </trkpt>
      <trkpt lat="48.79812" lon="-3.4416">
        <ele>5</ele>
        <time>2021-03-04T09:47:38Z</time>
      </trkpt>
      <trkpt lat="48.79815" lon="-3.44173">
        <ele>6</ele>
        <time>2021-03-04T09:47:39Z</time>
      </trkpt>
      <trkpt lat="48.79819" lon="-3.44184">
        <ele>6</ele>
        <time>2021-03-04T09:47:41Z</time>
      </trkpt>
      <trkpt lat="48.79826" lon="-3.44193">
        <ele>6</ele>
        <time>2021-03-04T09:47:43Z</time>
      </trkpt>
      <trkpt lat="48.79836" lon="-3.442">
        <ele>6</ele>
        <time>2021-03-04T09:47:45Z</time>
      </trkpt>
      <trkpt lat="48.799" lon="-3.44219">
        <ele>6</ele>
        <time>2021-03-04T09:47:56Z</time>
      </trkpt>
      <trkpt lat="48.79902" lon="-3.4422">
        <ele>6</ele>
        <time>2021-03-04T09:47:57Z</time>
      </trkpt>
      <trkpt lat="48.79914" lon="-3.44224">
        <ele>6</ele>
        <time>2021-03-04T09:47:59Z</time>
      </trkpt>
      <trkpt lat="48.79933" lon="-3.4423">
        <ele>6</ele>
        <time>2021-03-04T09:48:02Z</time>
      </trkpt>
      <trkpt lat="48.79934" lon="-3.44231">
        <ele>6</ele>
        <time>2021-03-04T09:48:02Z</time>
      </trkpt>
      <trkpt lat="48.79995" lon="-3.44252">
        <ele>6</ele>
        <time>2021-03-04T09:48:14Z</time>
      </trkpt>
      <trkpt lat="48.80021" lon="-3.44261">
        <ele>6</ele>
        <time>2021-03-04T09:48:18Z</time>
      </trkpt>
      <trkpt lat="48.80035" lon="-3.44266">
        <ele>6</ele>
        <time>2021-03-04T09:48:21Z</time>
      </trkpt>
      <trkpt lat="48.80045" lon="-3.4427">
        <ele>6</ele>
        <time>2021-03-04T09:48:23Z</time>
      </trkpt>
      <trkpt lat="48.80051" lon="-3.44272">
        <ele>6</ele>
        <time>2021-03-04T09:48:24Z</time>
      </trkpt>
      <trkpt lat="48.80075" lon="-3.44283">
        <ele>5</ele>
        <time>2021-03-04T09:48:28Z</time>
      </trkpt>
      <trkpt lat="48.80089" lon="-3.44292">
        <ele>6</ele>
        <time>2021-03-04T09:48:31Z</time>
      </trkpt>
      <trkpt lat="48.80093" lon="-3.44294">
        <ele>6</ele>
        <time>2021-03-04T09:48:32Z</time>
      </trkpt>
      <trkpt lat="48.80099" lon="-3.443">
        <ele>6</ele>
        <time>2021-03-04T09:48:33Z</time>
      </trkpt>
      <trkpt lat="48.80102" lon="-3.44302">
        <ele>6</ele>
        <time>2021-03-04T09:48:34Z</time>
      </trkpt>
      <trkpt lat="48.80126" lon="-3.44324">
        <ele>6</ele>
        <time>2021-03-04T09:48:39Z</time>
      </trkpt>
      <trkpt lat="48.80134" lon="-3.44331">
        <ele>6</ele>
        <time>2021-03-04T09:48:40Z</time>
      </trkpt>
      <trkpt lat="48.80152" lon="-3.44345">
        <ele>6</ele>
        <time>2021-03-04T09:48:44Z</time>
      </trkpt>
      <trkpt lat="48.80168" lon="-3.44351">
        <ele>6</ele>
        <time>2021-03-04T09:48:47Z</time>
      </trkpt>
      <trkpt lat="48.80185" lon="-3.44351">
        <ele>6</ele>
        <time>2021-03-04T09:48:50Z</time>
      </trkpt>
      <trkpt lat="48.8021" lon="-3.44354">
        <ele>5</ele>
        <time>2021-03-04T09:48:54Z</time>
      </trkpt>
      <trkpt lat="48.80216" lon="-3.44349">
        <ele>5</ele>
        <time>2021-03-04T09:48:55Z</time>
      </trkpt>
      <trkpt lat="48.80284" lon="-3.44324">
        <ele>5</ele>
        <time>2021-03-04T09:49:08Z</time>
      </trkpt>
      <trkpt lat="48.80296" lon="-3.44319">
        <ele>5</ele>
        <time>2021-03-04T09:49:10Z</time>
      </trkpt>
      <trkpt lat="48.80323" lon="-3.44318">
        <ele>4</ele>
        <time>2021-03-04T09:49:15Z</time>
      </trkpt>
      <trkpt lat="48.80348" lon="-3.44327">
        <ele>5</ele>
        <time>2021-03-04T09:49:19Z</time>
      </trkpt>
      <trkpt lat="48.80363" lon="-3.44328">
        <ele>5</ele>
        <time>2021-03-04T09:49:22Z</time>
      </trkpt>
      <trkpt lat="48.80365" lon="-3.44327">
        <ele>5</ele>
        <time>2021-03-04T09:49:22Z</time>
      </trkpt>
      <trkpt lat="48.80375" lon="-3.44324">
        <ele>5</ele>
        <time>2021-03-04T09:49:24Z</time>
      </trkpt>
      <trkpt lat="48.80387" lon="-3.44321">
        <ele>6</ele>
        <time>2021-03-04T09:49:26Z</time>
      </trkpt>
      <trkpt lat="48.80439" lon="-3.44302">
        <ele>5</ele>
        <time>2021-03-04T09:49:36Z</time>
      </trkpt>
      <trkpt lat="48.80494" lon="-3.44283">
        <ele>4</ele>
        <time>2021-03-04T09:49:46Z</time>
      </trkpt>
      <trkpt lat="48.80499" lon="-3.44281">
        <ele>4</ele>
        <time>2021-03-04T09:49:47Z</time>
      </trkpt>
      <trkpt lat="48.80506" lon="-3.44278">
        <ele>4</ele>
        <time>2021-03-04T09:49:48Z</time>
      </trkpt>
      <trkpt lat="48.80517" lon="-3.44269">
        <ele>4</ele>
        <time>2021-03-04T09:49:50Z</time>
      </trkpt>
      <trkpt lat="48.80582" lon="-3.44204">
        <ele>3</ele>
        <time>2021-03-04T09:50:04Z</time>
      </trkpt>
      <trkpt lat="48.80616" lon="-3.44171">
        <ele>3</ele>
        <time>2021-03-04T09:50:11Z</time>
      </trkpt>
      <trkpt lat="48.80617" lon="-3.44168">
        <ele>2</ele>
        <time>2021-03-04T09:50:12Z</time>
      </trkpt>
      <trkpt lat="48.8063" lon="-3.44143">
        <ele>2</ele>
        <time>2021-03-04T09:50:16Z</time>
      </trkpt>
      <trkpt lat="48.8065" lon="-3.44079">
        <ele>2</ele>
        <time>2021-03-04T09:50:24Z</time>
      </trkpt>
      <trkpt lat="48.80653" lon="-3.4406">
        <ele>1</ele>
        <time>2021-03-04T09:50:26Z</time>
      </trkpt>
      <trkpt lat="48.80656" lon="-3.44022">
        <ele>3.8</ele>
        <time>2021-03-04T09:50:31Z</time>
      </trkpt>
      <trkpt lat="48.80655" lon="-3.43985">
        <ele>1</ele>
        <time>2021-03-04T09:50:35Z</time>
      </trkpt>
      <trkpt lat="48.80649" lon="-3.43946">
        <ele>1</ele>
        <time>2021-03-04T09:50:40Z</time>
      </trkpt>
      <trkpt lat="48.8064" lon="-3.43916">
        <ele>3</ele>
        <time>2021-03-04T09:50:44Z</time>
      </trkpt>
      <trkpt lat="48.8062" lon="-3.43869">
        <ele>3</ele>
        <time>2021-03-04T09:50:50Z</time>
      </trkpt>
      <trkpt lat="48.80607" lon="-3.43837">
        <ele>3</ele>
        <time>2021-03-04T09:50:55Z</time>
      </trkpt>
      <trkpt lat="48.80606" lon="-3.43831">
        <ele>2</ele>
        <time>2021-03-04T09:50:55Z</time>
      </trkpt>
      <trkpt lat="48.80605" lon="-3.43814">
        <ele>3</ele>
        <time>2021-03-04T09:50:57Z</time>
      </trkpt>
      <trkpt lat="48.80606" lon="-3.43796">
        <ele>3</ele>
        <time>2021-03-04T09:50:59Z</time>
      </trkpt>
      <trkpt lat="48.80611" lon="-3.43762">
        <ele>3</ele>
        <time>2021-03-04T09:51:03Z</time>
      </trkpt>
      <trkpt lat="48.80616" lon="-3.43748">
        <ele>4</ele>
        <time>2021-03-04T09:51:05Z</time>
      </trkpt>
      <trkpt lat="48.80619" lon="-3.43742">
        <ele>4</ele>
        <time>2021-03-04T09:51:06Z</time>
      </trkpt>
      <trkpt lat="48.80629" lon="-3.43723">
        <ele>3</ele>
        <time>2021-03-04T09:51:09Z</time>
      </trkpt>
      <trkpt lat="48.80633" lon="-3.43718">
        <ele>3</ele>
        <time>2021-03-04T09:51:10Z</time>
      </trkpt>
      <trkpt lat="48.80639" lon="-3.43711">
        <ele>3</ele>
        <time>2021-03-04T09:51:11Z</time>
      </trkpt>
      <trkpt lat="48.80645" lon="-3.43708">
        <ele>3</ele>
        <time>2021-03-04T09:51:12Z</time>
      </trkpt>
      <trkpt lat="48.8065" lon="-3.43707">
        <ele>3</ele>
        <time>2021-03-04T09:51:13Z</time>
      </trkpt>
      <trkpt lat="48.80651" lon="-3.43707">
        <ele>3</ele>
        <time>2021-03-04T09:51:14Z</time>
      </trkpt>
      <trkpt lat="48.80665" lon="-3.43705">
        <ele>3</ele>
        <time>2021-03-04T09:51:16Z</time>
      </trkpt>
      <trkpt lat="48.80676" lon="-3.43707">
        <ele>3</ele>
        <time>2021-03-04T09:51:18Z</time>
      </trkpt>
      <trkpt lat="48.80709" lon="-3.43711">
        <ele>3</ele>
        <time>2021-03-04T09:51:24Z</time>
      </trkpt>
      <trkpt lat="48.80725" lon="-3.43714">
        <ele>4</ele>
        <time>2021-03-04T09:51:27Z</time>
      </trkpt>
      <trkpt lat="48.80732" lon="-3.43715">
        <ele>4</ele>
        <time>2021-03-04T09:51:28Z</time>
      </trkpt>
      <trkpt lat="48.80811" lon="-3.43727">
        <ele>4</ele>
        <time>2021-03-04T09:51:42Z</time>
      </trkpt>
      <trkpt lat="48.80842" lon="-3.43731">
        <ele>4</ele>
        <time>2021-03-04T09:51:48Z</time>
      </trkpt>
      <trkpt lat="48.80877" lon="-3.43735">
        <ele>3</ele>
        <time>2021-03-04T09:51:54Z</time>
      </trkpt>
      <trkpt lat="48.80953" lon="-3.43746">
        <ele>2</ele>
        <time>2021-03-04T09:52:07Z</time>
      </trkpt>
      <trkpt lat="48.80964" lon="-3.43748">
        <ele>3</ele>
        <time>2021-03-04T09:52:09Z</time>
      </trkpt>
      <trkpt lat="48.81037" lon="-3.43775">
        <ele>7</ele>
        <time>2021-03-04T09:52:23Z</time>
      </trkpt>
      <trkpt lat="48.81073" lon="-3.43778">
        <ele>9</ele>
        <time>2021-03-04T09:52:29Z</time>
      </trkpt>
      <trkpt lat="48.81093" lon="-3.43773">
        <ele>11</ele>
        <time>2021-03-04T09:52:33Z</time>
      </trkpt>
      <trkpt lat="48.81121" lon="-3.43757">
        <ele>12</ele>
        <time>2021-03-04T09:52:38Z</time>
      </trkpt>
      <trkpt lat="48.81137" lon="-3.43741">
        <ele>12</ele>
        <time>2021-03-04T09:52:42Z</time>
      </trkpt>
      <trkpt lat="48.8115" lon="-3.43723">
        <ele>12</ele>
        <time>2021-03-04T09:52:45Z</time>
      </trkpt>
      <trkpt lat="48.81164" lon="-3.43692">
        <ele>11</ele>
        <time>2021-03-04T09:52:49Z</time>
      </trkpt>
      <trkpt lat="48.81191" lon="-3.43607">
        <ele>12</ele>
        <time>2021-03-04T09:53:00Z</time>
      </trkpt>
      <trkpt lat="48.81203" lon="-3.43583">
        <ele>14</ele>
        <time>2021-03-04T09:53:04Z</time>
      </trkpt>
      <trkpt lat="48.81249" lon="-3.43516">
        <ele>15</ele>
        <time>2021-03-04T09:53:15Z</time>
      </trkpt>
      <trkpt lat="48.81272" lon="-3.43495">
        <ele>16</ele>
        <time>2021-03-04T09:53:20Z</time>
      </trkpt>
      <trkpt lat="48.81293" lon="-3.4348">
        <ele>17</ele>
        <time>2021-03-04T09:53:24Z</time>
      </trkpt>
      <trkpt lat="48.81316" lon="-3.4347">
        <ele>19</ele>
        <time>2021-03-04T09:53:28Z</time>
      </trkpt>
      <trkpt lat="48.81385" lon="-3.43457">
        <ele>23</ele>
        <time>2021-03-04T09:53:41Z</time>
      </trkpt>
      <trkpt lat="48.81386" lon="-3.4345">
        <ele>21</ele>
        <time>2021-03-04T09:53:41Z</time>
      </trkpt>
      <trkpt lat="48.814" lon="-3.43437">
        <ele>20</ele>
        <time>2021-03-04T09:53:44Z</time>
      </trkpt>
      <trkpt lat="48.81461" lon="-3.43403">
        <ele>21</ele>
        <time>2021-03-04T09:53:56Z</time>
      </trkpt>
      <trkpt lat="48.81533" lon="-3.43371">
        <ele>29</ele>
        <time>2021-03-04T09:54:09Z</time>
      </trkpt>
      <trkpt lat="48.81545" lon="-3.43359">
        <ele>30</ele>
        <time>2021-03-04T09:54:12Z</time>
      </trkpt>
      <trkpt lat="48.81553" lon="-3.43344">
        <ele>31</ele>
        <time>2021-03-04T09:54:14Z</time>
      </trkpt>
      <trkpt lat="48.81561" lon="-3.43299">
        <ele>31</ele>
        <time>2021-03-04T09:54:20Z</time>
      </trkpt>
      <trkpt lat="48.81563" lon="-3.43276">
        <ele>31</ele>
        <time>2021-03-04T09:54:22Z</time>
      </trkpt>
      <trkpt lat="48.81573" lon="-3.43165">
        <ele>30</ele>
        <time>2021-03-04T09:54:35Z</time>
      </trkpt>
      <trkpt lat="48.8158" lon="-3.43123">
        <ele>28</ele>
        <time>2021-03-04T09:54:40Z</time>
      </trkpt>
      <trkpt lat="48.81587" lon="-3.43109">
        <ele>28</ele>
        <time>2021-03-04T09:54:43Z</time>
      </trkpt>
      <trkpt lat="48.81597" lon="-3.431">
        <ele>28</ele>
        <time>2021-03-04T09:54:45Z</time>
      </trkpt>
      <trkpt lat="48.8161" lon="-3.43095">
        <ele>29</ele>
        <time>2021-03-04T09:54:47Z</time>
      </trkpt>
      <trkpt lat="48.81718" lon="-3.4307">
        <ele>33</ele>
        <time>2021-03-04T09:55:06Z</time>
      </trkpt>
      <trkpt lat="48.81729" lon="-3.43062">
        <ele>33</ele>
        <time>2021-03-04T09:55:09Z</time>
      </trkpt>
      <trkpt lat="48.81771" lon="-3.43">
        <ele>33</ele>
        <time>2021-03-04T09:55:19Z</time>
      </trkpt>
      <trkpt lat="48.81797" lon="-3.42976">
        <ele>34</ele>
        <time>2021-03-04T09:55:24Z</time>
      </trkpt>
      <trkpt lat="48.81933" lon="-3.42946">
        <ele>22</ele>
        <time>2021-03-04T09:55:49Z</time>
      </trkpt>
      <trkpt lat="48.81941" lon="-3.42942">
        <ele>21</ele>
        <time>2021-03-04T09:55:50Z</time>
      </trkpt>
      <trkpt lat="48.81943" lon="-3.42944">
        <ele>21</ele>
        <time>2021-03-04T09:55:51Z</time>
      </trkpt>
      <trkpt lat="48.81941" lon="-3.42952">
        <ele>19</ele>
        <time>2021-03-04T09:55:52Z</time>
      </trkpt>
      <trkpt lat="48.8192" lon="-3.4297">
        <ele>19</ele>
        <time>2021-03-04T09:55:56Z</time>
      </trkpt>
      <trkpt lat="48.81914" lon="-3.4298">
        <ele>17</ele>
        <time>2021-03-04T09:55:58Z</time>
      </trkpt>
      <trkpt lat="48.81906" lon="-3.42997">
        <ele>14</ele>
        <time>2021-03-04T09:56:00Z</time>
      </trkpt>
      <trkpt lat="48.81901" lon="-3.43017">
        <ele>13</ele>
        <time>2021-03-04T09:56:03Z</time>
      </trkpt>
      <trkpt lat="48.81891" lon="-3.43073">
        <ele>11</ele>
        <time>2021-03-04T09:56:09Z</time>
      </trkpt>
      <trkpt lat="48.81843" lon="-3.43058">
        <ele>20</ele>
        <time>2021-03-04T09:56:18Z</time>
      </trkpt>
      <trkpt lat="48.81836" lon="-3.43059">
        <ele>21</ele>
        <time>2021-03-04T09:56:19Z</time>
      </trkpt>
      <trkpt lat="48.81828" lon="-3.43065">
        <ele>21</ele>
        <time>2021-03-04T09:56:21Z</time>
      </trkpt>
      <trkpt lat="48.81822" lon="-3.43076">
        <ele>21</ele>
        <time>2021-03-04T09:56:23Z</time>
      </trkpt>
      <trkpt lat="48.81808" lon="-3.43158">
        <ele>20</ele>
        <time>2021-03-04T09:56:33Z</time>
      </trkpt>
      <trkpt lat="48.81807" lon="-3.43167">
        <ele>20</ele>
        <time>2021-03-04T09:56:34Z</time>
      </trkpt>
      <trkpt lat="48.81811" lon="-3.43188">
        <ele>20</ele>
        <time>2021-03-04T09:56:36Z</time>
      </trkpt>
      <trkpt lat="48.81816" lon="-3.43198">
        <ele>19</ele>
        <time>2021-03-04T09:56:38Z</time>
      </trkpt>
      <trkpt lat="48.81821" lon="-3.43202">
        <ele>18</ele>
        <time>2021-03-04T09:56:39Z</time>
      </trkpt>
      <trkpt lat="48.81859" lon="-3.43215">
        <ele>13</ele>
        <time>2021-03-04T09:56:46Z</time>
      </trkpt>
      <trkpt lat="48.81864" lon="-3.43222">
        <ele>13</ele>
        <time>2021-03-04T09:56:47Z</time>
      </trkpt>
      <trkpt lat="48.81847" lon="-3.43352">
        <ele>21</ele>
        <time>2021-03-04T09:57:02Z</time>
      </trkpt>
      <trkpt lat="48.81857" lon="-3.43418">
        <ele>27</ele>
        <time>2021-03-04T09:57:10Z</time>
      </trkpt>
      <trkpt lat="48.81873" lon="-3.4346">
        <ele>30</ele>
        <time>2021-03-04T09:57:16Z</time>
      </trkpt>
      <trkpt lat="48.81899" lon="-3.4351">
        <ele>32</ele>
        <time>2021-03-04T09:57:23Z</time>
      </trkpt>
      <trkpt lat="48.81968" lon="-3.43616">
        <ele>29</ele>
        <time>2021-03-04T09:57:41Z</time>
      </trkpt>
      <trkpt lat="48.81978" lon="-3.43639">
        <ele>28</ele>
        <time>2021-03-04T09:57:44Z</time>
      </trkpt>
      <trkpt lat="48.81984" lon="-3.43662">
        <ele>28</ele>
        <time>2021-03-04T09:57:47Z</time>
      </trkpt>
      <trkpt lat="48.81982" lon="-3.43674">
        <ele>29</ele>
        <time>2021-03-04T09:57:48Z</time>
      </trkpt>
      <trkpt lat="48.81953" lon="-3.43747">
        <ele>36</ele>
        <time>2021-03-04T09:57:58Z</time>
      </trkpt>
      <trkpt lat="48.81947" lon="-3.43768">
        <ele>37</ele>
        <time>2021-03-04T09:58:01Z</time>
      </trkpt>
      <trkpt lat="48.81943" lon="-3.4379">
        <ele>38</ele>
        <time>2021-03-04T09:58:04Z</time>
      </trkpt>
      <trkpt lat="48.81942" lon="-3.43849">
        <ele>36</ele>
        <time>2021-03-04T09:58:11Z</time>
      </trkpt>
      <trkpt lat="48.81938" lon="-3.43868">
        <ele>38</ele>
        <time>2021-03-04T09:58:13Z</time>
      </trkpt>
      <trkpt lat="48.81931" lon="-3.43893">
        <ele>40</ele>
        <time>2021-03-04T09:58:16Z</time>
      </trkpt>
      <trkpt lat="48.81926" lon="-3.43955">
        <ele>43</ele>
        <time>2021-03-04T09:58:24Z</time>
      </trkpt>
      <trkpt lat="48.81931" lon="-3.44033">
        <ele>44</ele>
        <time>2021-03-04T09:58:33Z</time>
      </trkpt>
      <trkpt lat="48.8193" lon="-3.44044">
        <ele>44</ele>
        <time>2021-03-04T09:58:34Z</time>
      </trkpt>
      <trkpt lat="48.81931" lon="-3.4405">
        <ele>44</ele>
        <time>2021-03-04T09:58:35Z</time>
      </trkpt>
      <trkpt lat="48.81931" lon="-3.44066">
        <ele>44</ele>
        <time>2021-03-04T09:58:37Z</time>
      </trkpt>
      <trkpt lat="48.81929" lon="-3.44083">
        <ele>46</ele>
        <time>2021-03-04T09:58:39Z</time>
      </trkpt>
      <trkpt lat="48.81922" lon="-3.44105">
        <ele>47</ele>
        <time>2021-03-04T09:58:42Z</time>
      </trkpt>
      <trkpt lat="48.81913" lon="-3.44134">
        <ele>48</ele>
        <time>2021-03-04T09:58:45Z</time>
      </trkpt>
      <trkpt lat="48.81902" lon="-3.44163">
        <ele>48</ele>
        <time>2021-03-04T09:58:49Z</time>
      </trkpt>
      <trkpt lat="48.81875" lon="-3.4418">
        <ele>50</ele>
        <time>2021-03-04T09:58:54Z</time>
      </trkpt>
      <trkpt lat="48.8187" lon="-3.44183">
        <ele>51</ele>
        <time>2021-03-04T09:58:55Z</time>
      </trkpt>
      <trkpt lat="48.81856" lon="-3.44205">
        <ele>52</ele>
        <time>2021-03-04T09:58:59Z</time>
      </trkpt>
      <trkpt lat="48.81853" lon="-3.4421">
        <ele>52</ele>
        <time>2021-03-04T09:59:00Z</time>
      </trkpt>
      <trkpt lat="48.81836" lon="-3.44237">
        <ele>56</ele>
        <time>2021-03-04T09:59:04Z</time>
      </trkpt>
      <trkpt lat="48.81811" lon="-3.44296">
        <ele>53</ele>
        <time>2021-03-04T09:59:12Z</time>
      </trkpt>
      <trkpt lat="48.81801" lon="-3.44341">
        <ele>50</ele>
        <time>2021-03-04T09:59:18Z</time>
      </trkpt>
      <trkpt lat="48.81796" lon="-3.44421">
        <ele>45</ele>
        <time>2021-03-04T09:59:27Z</time>
      </trkpt>
      <trkpt lat="48.81785" lon="-3.44462">
        <ele>44</ele>
        <time>2021-03-04T09:59:33Z</time>
      </trkpt>
      <trkpt lat="48.81778" lon="-3.44471">
        <ele>45</ele>
        <time>2021-03-04T09:59:34Z</time>
      </trkpt>
      <trkpt lat="48.81771" lon="-3.44476">
        <ele>46</ele>
        <time>2021-03-04T09:59:36Z</time>
      </trkpt>
      <trkpt lat="48.81763" lon="-3.44482">
        <ele>48</ele>
        <time>2021-03-04T09:59:37Z</time>
      </trkpt>
      <trkpt lat="48.81742" lon="-3.44492">
        <ele>51</ele>
        <time>2021-03-04T09:59:41Z</time>
      </trkpt>
      <trkpt lat="48.81676" lon="-3.44513">
        <ele>49</ele>
        <time>2021-03-04T09:59:53Z</time>
      </trkpt>
      <trkpt lat="48.81664" lon="-3.44517">
        <ele>50</ele>
        <time>2021-03-04T09:59:55Z</time>
      </trkpt>
      <trkpt lat="48.81641" lon="-3.44572">
        <ele>48</ele>
        <time>2021-03-04T10:00:03Z</time>
      </trkpt>
      <trkpt lat="48.81619" lon="-3.44615">
        <ele>48</ele>
        <time>2021-03-04T10:00:09Z</time>
      </trkpt>
      <trkpt lat="48.81625" lon="-3.44622">
        <ele>47</ele>
        <time>2021-03-04T10:00:11Z</time>
      </trkpt>
      <trkpt lat="48.81632" lon="-3.44626">
        <ele>47</ele>
        <time>2021-03-04T10:00:12Z</time>
      </trkpt>
      <trkpt lat="48.81634" lon="-3.44667">
        <ele>45</ele>
        <time>2021-03-04T10:00:17Z</time>
      </trkpt>
      <trkpt lat="48.81632" lon="-3.44693">
        <ele>43</ele>
        <time>2021-03-04T10:00:20Z</time>
      </trkpt>
      <trkpt lat="48.81604" lon="-3.44769">
        <ele>45</ele>
        <time>2021-03-04T10:00:30Z</time>
      </trkpt>
      <trkpt lat="48.81599" lon="-3.44791">
        <ele>46</ele>
        <time>2021-03-04T10:00:33Z</time>
      </trkpt>
      <trkpt lat="48.81596" lon="-3.44807">
        <ele>46</ele>
        <time>2021-03-04T10:00:35Z</time>
      </trkpt>
      <trkpt lat="48.81603" lon="-3.44877">
        <ele>40</ele>
        <time>2021-03-04T10:00:43Z</time>
      </trkpt>
      <trkpt lat="48.816" lon="-3.44915">
        <ele>40</ele>
        <time>2021-03-04T10:00:47Z</time>
      </trkpt>
      <trkpt lat="48.81595" lon="-3.44938">
        <ele>38</ele>
        <time>2021-03-04T10:00:50Z</time>
      </trkpt>
      <trkpt lat="48.81553" lon="-3.45004">
        <ele>40</ele>
        <time>2021-03-04T10:01:01Z</time>
      </trkpt>
      <trkpt lat="48.81538" lon="-3.45044">
        <ele>36</ele>
        <time>2021-03-04T10:01:06Z</time>
      </trkpt>
      <trkpt lat="48.81524" lon="-3.45102">
        <ele>31</ele>
        <time>2021-03-04T10:01:14Z</time>
      </trkpt>
      <trkpt lat="48.81499" lon="-3.45253">
        <ele>28</ele>
        <time>2021-03-04T10:01:32Z</time>
      </trkpt>
      <trkpt lat="48.81487" lon="-3.45368">
        <ele>25</ele>
        <time>2021-03-04T10:01:46Z</time>
      </trkpt>
      <trkpt lat="48.81485" lon="-3.45397">
        <ele>24</ele>
        <time>2021-03-04T10:01:49Z</time>
      </trkpt>
      <trkpt lat="48.81486" lon="-3.45404">
        <ele>23</ele>
        <time>2021-03-04T10:01:50Z</time>
      </trkpt>
      <trkpt lat="48.81485" lon="-3.45451">
        <ele>21</ele>
        <time>2021-03-04T10:01:55Z</time>
      </trkpt>
      <trkpt lat="48.81489" lon="-3.45473">
        <ele>19</ele>
        <time>2021-03-04T10:01:58Z</time>
      </trkpt>
      <trkpt lat="48.81488" lon="-3.45477">
        <ele>19</ele>
        <time>2021-03-04T10:01:58Z</time>
      </trkpt>
      <trkpt lat="48.81488" lon="-3.4549">
        <ele>19</ele>
        <time>2021-03-04T10:02:00Z</time>
      </trkpt>
      <trkpt lat="48.81526" lon="-3.45618">
        <ele>10</ele>
        <time>2021-03-04T10:02:16Z</time>
      </trkpt>
      <trkpt lat="48.81531" lon="-3.45639">
        <ele>10</ele>
        <time>2021-03-04T10:02:19Z</time>
      </trkpt>
      <trkpt lat="48.8155" lon="-3.45704">
        <ele>8</ele>
        <time>2021-03-04T10:02:27Z</time>
      </trkpt>
      <trkpt lat="48.81588" lon="-3.45821">
        <ele>8</ele>
        <time>2021-03-04T10:02:43Z</time>
      </trkpt>
      <trkpt lat="48.8149" lon="-3.45889">
        <ele>10</ele>
        <time>2021-03-04T10:03:02Z</time>
      </trkpt>
      <trkpt lat="48.81474" lon="-3.45899">
        <ele>11</ele>
        <time>2021-03-04T10:03:05Z</time>
      </trkpt>
      <trkpt lat="48.8145" lon="-3.45916">
        <ele>11</ele>
        <time>2021-03-04T10:03:10Z</time>
      </trkpt>
      <trkpt lat="48.81443" lon="-3.45921">
        <ele>11</ele>
        <time>2021-03-04T10:03:11Z</time>
      </trkpt>
      <trkpt lat="48.81436" lon="-3.45928">
        <ele>11</ele>
        <time>2021-03-04T10:03:13Z</time>
      </trkpt>
      <trkpt lat="48.81431" lon="-3.4594">
        <ele>11</ele>
        <time>2021-03-04T10:03:14Z</time>
      </trkpt>
      <trkpt lat="48.81421" lon="-3.4596">
        <ele>10</ele>
        <time>2021-03-04T10:03:17Z</time>
      </trkpt>
      <trkpt lat="48.81419" lon="-3.45971">
        <ele>10</ele>
        <time>2021-03-04T10:03:18Z</time>
      </trkpt>
      <trkpt lat="48.81412" lon="-3.45997">
        <ele>10</ele>
        <time>2021-03-04T10:03:22Z</time>
      </trkpt>
      <trkpt lat="48.81405" lon="-3.46019">
        <ele>11</ele>
        <time>2021-03-04T10:03:25Z</time>
      </trkpt>
      <trkpt lat="48.814" lon="-3.46029">
        <ele>12</ele>
        <time>2021-03-04T10:03:26Z</time>
      </trkpt>
      <trkpt lat="48.81393" lon="-3.4604">
        <ele>12</ele>
        <time>2021-03-04T10:03:28Z</time>
      </trkpt>
      <trkpt lat="48.8137" lon="-3.46069">
        <ele>14</ele>
        <time>2021-03-04T10:03:33Z</time>
      </trkpt>
      <trkpt lat="48.81363" lon="-3.46076">
        <ele>15</ele>
        <time>2021-03-04T10:03:35Z</time>
      </trkpt>
      <trkpt lat="48.81352" lon="-3.46088">
        <ele>16</ele>
        <time>2021-03-04T10:03:37Z</time>
      </trkpt>
      <trkpt lat="48.81245" lon="-3.46169">
        <ele>32</ele>
        <time>2021-03-04T10:03:58Z</time>
      </trkpt>
      <trkpt lat="48.81183" lon="-3.46219">
        <ele>40</ele>
        <time>2021-03-04T10:04:11Z</time>
      </trkpt>
      <trkpt lat="48.81174" lon="-3.46226">
        <ele>41</ele>
        <time>2021-03-04T10:04:13Z</time>
      </trkpt>
      <trkpt lat="48.81158" lon="-3.46233">
        <ele>42</ele>
        <time>2021-03-04T10:04:16Z</time>
      </trkpt>
      <trkpt lat="48.81086" lon="-3.46242">
        <ele>45</ele>
        <time>2021-03-04T10:04:28Z</time>
      </trkpt>
      <trkpt lat="48.81055" lon="-3.46246">
        <ele>46</ele>
        <time>2021-03-04T10:04:34Z</time>
      </trkpt>
      <trkpt lat="48.8105" lon="-3.4625">
        <ele>45</ele>
        <time>2021-03-04T10:04:35Z</time>
      </trkpt>
      <trkpt lat="48.81044" lon="-3.46252">
        <ele>46</ele>
        <time>2021-03-04T10:04:36Z</time>
      </trkpt>
      <trkpt lat="48.81033" lon="-3.46254">
        <ele>46</ele>
        <time>2021-03-04T10:04:38Z</time>
      </trkpt>
      <trkpt lat="48.81026" lon="-3.46251">
        <ele>46</ele>
        <time>2021-03-04T10:04:39Z</time>
      </trkpt>
      <trkpt lat="48.80954" lon="-3.46277">
        <ele>51</ele>
        <time>2021-03-04T10:04:53Z</time>
      </trkpt>
      <trkpt lat="48.80907" lon="-3.46291">
        <ele>54</ele>
        <time>2021-03-04T10:05:01Z</time>
      </trkpt>
      <trkpt lat="48.80886" lon="-3.4629">
        <ele>55</ele>
        <time>2021-03-04T10:05:05Z</time>
      </trkpt>
      <trkpt lat="48.80846" lon="-3.46282">
        <ele>57</ele>
        <time>2021-03-04T10:05:12Z</time>
      </trkpt>
      <trkpt lat="48.80809" lon="-3.46284">
        <ele>59</ele>
        <time>2021-03-04T10:05:19Z</time>
      </trkpt>
      <trkpt lat="48.80764" lon="-3.46305">
        <ele>60</ele>
        <time>2021-03-04T10:05:27Z</time>
      </trkpt>
      <trkpt lat="48.80733" lon="-3.46332">
        <ele>61</ele>
        <time>2021-03-04T10:05:33Z</time>
      </trkpt>
      <trkpt lat="48.80702" lon="-3.46363">
        <ele>64</ele>
        <time>2021-03-04T10:05:40Z</time>
      </trkpt>
      <trkpt lat="48.80687" lon="-3.46382">
        <ele>66</ele>
        <time>2021-03-04T10:05:43Z</time>
      </trkpt>
      <trkpt lat="48.8068" lon="-3.46409">
        <ele>66</ele>
        <time>2021-03-04T10:05:47Z</time>
      </trkpt>
      <trkpt lat="48.80674" lon="-3.46461">
        <ele>68</ele>
        <time>2021-03-04T10:05:53Z</time>
      </trkpt>
      <trkpt lat="48.80675" lon="-3.46506">
        <ele>69</ele>
        <time>2021-03-04T10:05:58Z</time>
      </trkpt>
      <trkpt lat="48.80681" lon="-3.46539">
        <ele>70</ele>
        <time>2021-03-04T10:06:02Z</time>
      </trkpt>
      <trkpt lat="48.80719" lon="-3.4653">
        <ele>71</ele>
        <time>2021-03-04T10:06:09Z</time>
      </trkpt>
      <trkpt lat="48.80759" lon="-3.46525">
        <ele>71</ele>
        <time>2021-03-04T10:06:16Z</time>
      </trkpt>
      <trkpt lat="48.80811" lon="-3.46515">
        <ele>70</ele>
        <time>2021-03-04T10:06:26Z</time>
      </trkpt>
      <trkpt lat="48.80857" lon="-3.4651">
        <ele>70</ele>
        <time>2021-03-04T10:06:34Z</time>
      </trkpt>
      <trkpt lat="48.80899" lon="-3.46502">
        <ele>69</ele>
        <time>2021-03-04T10:06:41Z</time>
      </trkpt>
      <trkpt lat="48.80964" lon="-3.46483">
        <ele>68</ele>
        <time>2021-03-04T10:06:53Z</time>
      </trkpt>
      <trkpt lat="48.80993" lon="-3.46478">
        <ele>68</ele>
        <time>2021-03-04T10:06:58Z</time>
      </trkpt>
      <trkpt lat="48.81012" lon="-3.4649">
        <ele>69</ele>
        <time>2021-03-04T10:07:02Z</time>
      </trkpt>
      <trkpt lat="48.81062" lon="-3.46556">
        <ele>74</ele>
        <time>2021-03-04T10:07:14Z</time>
      </trkpt>
      <trkpt lat="48.81095" lon="-3.46573">
        <ele>75</ele>
        <time>2021-03-04T10:07:20Z</time>
      </trkpt>
      <trkpt lat="48.8114" lon="-3.46586">
        <ele>76</ele>
        <time>2021-03-04T10:07:28Z</time>
      </trkpt>
      <trkpt lat="48.81159" lon="-3.46588">
        <ele>76</ele>
        <time>2021-03-04T10:07:31Z</time>
      </trkpt>
      <trkpt lat="48.81175" lon="-3.46597">
        <ele>75</ele>
        <time>2021-03-04T10:07:35Z</time>
      </trkpt>
      <trkpt lat="48.81216" lon="-3.46635">
        <ele>73</ele>
        <time>2021-03-04T10:07:43Z</time>
      </trkpt>
      <trkpt lat="48.81251" lon="-3.46675">
        <ele>71</ele>
        <time>2021-03-04T10:07:51Z</time>
      </trkpt>
      <trkpt lat="48.8128" lon="-3.46702">
        <ele>68</ele>
        <time>2021-03-04T10:07:57Z</time>
      </trkpt>
      <trkpt lat="48.81299" lon="-3.46725">
        <ele>67</ele>
        <time>2021-03-04T10:08:01Z</time>
      </trkpt>
      <trkpt lat="48.81311" lon="-3.46746">
        <ele>66</ele>
        <time>2021-03-04T10:08:04Z</time>
      </trkpt>
      <trkpt lat="48.81315" lon="-3.46761">
        <ele>66</ele>
        <time>2021-03-04T10:08:06Z</time>
      </trkpt>
      <trkpt lat="48.81321" lon="-3.46801">
        <ele>65</ele>
        <time>2021-03-04T10:08:11Z</time>
      </trkpt>
      <trkpt lat="48.81333" lon="-3.46841">
        <ele>64</ele>
        <time>2021-03-04T10:08:16Z</time>
      </trkpt>
      <trkpt lat="48.81349" lon="-3.46873">
        <ele>64</ele>
        <time>2021-03-04T10:08:21Z</time>
      </trkpt>
      <trkpt lat="48.8136" lon="-3.46874">
        <ele>64</ele>
        <time>2021-03-04T10:08:23Z</time>
      </trkpt>
      <trkpt lat="48.81413" lon="-3.46868">
        <ele>62</ele>
        <time>2021-03-04T10:08:32Z</time>
      </trkpt>
      <trkpt lat="48.81446" lon="-3.4688">
        <ele>63</ele>
        <time>2021-03-04T10:08:39Z</time>
      </trkpt>
      <trkpt lat="48.81456" lon="-3.46889">
        <ele>63</ele>
        <time>2021-03-04T10:08:41Z</time>
      </trkpt>
      <trkpt lat="48.81473" lon="-3.46926">
        <ele>65</ele>
        <time>2021-03-04T10:08:46Z</time>
      </trkpt>
      <trkpt lat="48.8154" lon="-3.47102">
        <ele>67</ele>
        <time>2021-03-04T10:09:10Z</time>
      </trkpt>
      <trkpt lat="48.81552" lon="-3.47127">
        <ele>68</ele>
        <time>2021-03-04T10:09:13Z</time>
      </trkpt>
      <trkpt lat="48.81562" lon="-3.47138">
        <ele>68</ele>
        <time>2021-03-04T10:09:15Z</time>
      </trkpt>
      <trkpt lat="48.81618" lon="-3.47188">
        <ele>68</ele>
        <time>2021-03-04T10:09:27Z</time>
      </trkpt>
      <trkpt lat="48.81667" lon="-3.4722">
        <ele>68</ele>
        <time>2021-03-04T10:09:37Z</time>
      </trkpt>
      <trkpt lat="48.8167" lon="-3.47225">
        <ele>68</ele>
        <time>2021-03-04T10:09:37Z</time>
      </trkpt>
      <trkpt lat="48.81672" lon="-3.4725">
        <ele>69</ele>
        <time>2021-03-04T10:09:40Z</time>
      </trkpt>
      <trkpt lat="48.81669" lon="-3.47278">
        <ele>67</ele>
        <time>2021-03-04T10:09:44Z</time>
      </trkpt>
      <trkpt lat="48.81678" lon="-3.47296">
        <ele>66</ele>
        <time>2021-03-04T10:09:46Z</time>
      </trkpt>
      <trkpt lat="48.81689" lon="-3.47314">
        <ele>64</ele>
        <time>2021-03-04T10:09:49Z</time>
      </trkpt>
      <trkpt lat="48.81697" lon="-3.47323">
        <ele>64</ele>
        <time>2021-03-04T10:09:51Z</time>
      </trkpt>
      <trkpt lat="48.81716" lon="-3.47336">
        <ele>63</ele>
        <time>2021-03-04T10:09:55Z</time>
      </trkpt>
      <trkpt lat="48.81741" lon="-3.47349">
        <ele>61</ele>
        <time>2021-03-04T10:09:59Z</time>
      </trkpt>
      <trkpt lat="48.81782" lon="-3.47366">
        <ele>59</ele>
        <time>2021-03-04T10:10:07Z</time>
      </trkpt>
      <trkpt lat="48.81796" lon="-3.47376">
        <ele>58</ele>
        <time>2021-03-04T10:10:10Z</time>
      </trkpt>
      <trkpt lat="48.81812" lon="-3.4738">
        <ele>58</ele>
        <time>2021-03-04T10:10:13Z</time>
      </trkpt>
      <trkpt lat="48.81824" lon="-3.47378">
        <ele>57</ele>
        <time>2021-03-04T10:10:15Z</time>
      </trkpt>
      <trkpt lat="48.8183" lon="-3.47373">
        <ele>58</ele>
        <time>2021-03-04T10:10:16Z</time>
      </trkpt>
      <trkpt lat="48.8185" lon="-3.47394">
        <ele>56</ele>
        <time>2021-03-04T10:10:20Z</time>
      </trkpt>
      <trkpt lat="48.81858" lon="-3.47401">
        <ele>56</ele>
        <time>2021-03-04T10:10:22Z</time>
      </trkpt>
      <trkpt lat="48.81895" lon="-3.47412">
        <ele>55</ele>
        <time>2021-03-04T10:10:29Z</time>
      </trkpt>
      <trkpt lat="48.81933" lon="-3.47429">
        <ele>54</ele>
        <time>2021-03-04T10:10:36Z</time>
      </trkpt>
      <trkpt lat="48.81955" lon="-3.47445">
        <ele>52</ele>
        <time>2021-03-04T10:10:40Z</time>
      </trkpt>
      <trkpt lat="48.81969" lon="-3.4747">
        <ele>49</ele>
        <time>2021-03-04T10:10:44Z</time>
      </trkpt>
      <trkpt lat="48.81976" lon="-3.47486">
        <ele>47</ele>
        <time>2021-03-04T10:10:46Z</time>
      </trkpt>
      <trkpt lat="48.82006" lon="-3.47571">
        <ele>42</ele>
        <time>2021-03-04T10:10:57Z</time>
      </trkpt>
      <trkpt lat="48.82017" lon="-3.47595">
        <ele>41</ele>
        <time>2021-03-04T10:11:01Z</time>
      </trkpt>
      <trkpt lat="48.82035" lon="-3.4762">
        <ele>40</ele>
        <time>2021-03-04T10:11:05Z</time>
      </trkpt>
      <trkpt lat="48.82044" lon="-3.47628">
        <ele>40</ele>
        <time>2021-03-04T10:11:07Z</time>
      </trkpt>
      <trkpt lat="48.82152" lon="-3.47681">
        <ele>36</ele>
        <time>2021-03-04T10:11:27Z</time>
      </trkpt>
      <trkpt lat="48.82226" lon="-3.47764">
        <ele>32</ele>
        <time>2021-03-04T10:11:44Z</time>
      </trkpt>
      <trkpt lat="48.82338" lon="-3.47885">
        <ele>25</ele>
        <time>2021-03-04T10:12:08Z</time>
      </trkpt>
      <trkpt lat="48.82391" lon="-3.47954">
        <ele>21</ele>
        <time>2021-03-04T10:12:20Z</time>
      </trkpt>
      <trkpt lat="48.82424" lon="-3.47993">
        <ele>20</ele>
        <time>2021-03-04T10:12:28Z</time>
      </trkpt>
      <trkpt lat="48.82435" lon="-3.48005">
        <ele>20</ele>
        <time>2021-03-04T10:12:30Z</time>
      </trkpt>
      <trkpt lat="48.82466" lon="-3.48032">
        <ele>21</ele>
        <time>2021-03-04T10:12:37Z</time>
      </trkpt>
      <trkpt lat="48.82581" lon="-3.48126">
        <ele>18</ele>
        <time>2021-03-04T10:13:00Z</time>
      </trkpt>
      <trkpt lat="48.82593" lon="-3.48137">
        <ele>18</ele>
        <time>2021-03-04T10:13:02Z</time>
      </trkpt>
      <trkpt lat="48.82639" lon="-3.48197">
        <ele>16</ele>
        <time>2021-03-04T10:13:13Z</time>
      </trkpt>
      <trkpt lat="48.82652" lon="-3.48213">
        <ele>16</ele>
        <time>2021-03-04T10:13:16Z</time>
      </trkpt>
      <trkpt lat="48.82707" lon="-3.48263">
        <ele>17</ele>
        <time>2021-03-04T10:13:28Z</time>
      </trkpt>
      <trkpt lat="48.82734" lon="-3.48304">
        <ele>17</ele>
        <time>2021-03-04T10:13:34Z</time>
      </trkpt>
      <trkpt lat="48.82745" lon="-3.48316">
        <ele>17</ele>
        <time>2021-03-04T10:13:37Z</time>
      </trkpt>
      <trkpt lat="48.82771" lon="-3.4834">
        <ele>16</ele>
        <time>2021-03-04T10:13:42Z</time>
      </trkpt>
      <trkpt lat="48.82781" lon="-3.48347">
        <ele>15</ele>
        <time>2021-03-04T10:13:44Z</time>
      </trkpt>
      <trkpt lat="48.82839" lon="-3.48374">
        <ele>12</ele>
        <time>2021-03-04T10:13:55Z</time>
      </trkpt>
      <trkpt lat="48.82889" lon="-3.48403">
        <ele>9</ele>
        <time>2021-03-04T10:14:04Z</time>
      </trkpt>
      <trkpt lat="48.82908" lon="-3.48411">
        <ele>8</ele>
        <time>2021-03-04T10:14:08Z</time>
      </trkpt>
      <trkpt lat="48.82934" lon="-3.48416">
        <ele>9</ele>
        <time>2021-03-04T10:14:13Z</time>
      </trkpt>
      <trkpt lat="48.82961" lon="-3.48425">
        <ele>10</ele>
        <time>2021-03-04T10:14:17Z</time>
      </trkpt>
      <trkpt lat="48.83022" lon="-3.48458">
        <ele>10</ele>
        <time>2021-03-04T10:14:29Z</time>
      </trkpt>
      <trkpt lat="48.83061" lon="-3.48471">
        <ele>10</ele>
        <time>2021-03-04T10:14:36Z</time>
      </trkpt>
      <trkpt lat="48.83076" lon="-3.48484">
        <ele>10</ele>
        <time>2021-03-04T10:14:39Z</time>
      </trkpt>
      <trkpt lat="48.83076" lon="-3.48499">
        <ele>10</ele>
        <time>2021-03-04T10:14:41Z</time>
      </trkpt>
      <trkpt lat="48.83077" lon="-3.48511">
        <ele>10</ele>
        <time>2021-03-04T10:14:42Z</time>
      </trkpt>
      <trkpt lat="48.83082" lon="-3.48519">
        <ele>10</ele>
        <time>2021-03-04T10:14:44Z</time>
      </trkpt>
      <trkpt lat="48.83089" lon="-3.48527">
        <ele>10</ele>
        <time>2021-03-04T10:14:45Z</time>
      </trkpt>
      <trkpt lat="48.83093" lon="-3.48533">
        <ele>10</ele>
        <time>2021-03-04T10:14:46Z</time>
      </trkpt>
      <trkpt lat="48.83101" lon="-3.48585">
        <ele>10</ele>
        <time>2021-03-04T10:14:52Z</time>
      </trkpt>
      <trkpt lat="48.83101" lon="-3.48589">
        <ele>9</ele>
        <time>2021-03-04T10:14:53Z</time>
      </trkpt>
      <trkpt lat="48.83102" lon="-3.48593">
        <ele>9</ele>
        <time>2021-03-04T10:14:53Z</time>
      </trkpt>
      <trkpt lat="48.83104" lon="-3.48598">
        <ele>9</ele>
        <time>2021-03-04T10:14:54Z</time>
      </trkpt>
      <trkpt lat="48.83119" lon="-3.48609">
        <ele>9</ele>
        <time>2021-03-04T10:14:57Z</time>
      </trkpt>
      <trkpt lat="48.83127" lon="-3.48614">
        <ele>9</ele>
        <time>2021-03-04T10:14:59Z</time>
      </trkpt>
      <trkpt lat="48.83139" lon="-3.48617">
        <ele>8</ele>
        <time>2021-03-04T10:15:01Z</time>
      </trkpt>
      <trkpt lat="48.83146" lon="-3.48615">
        <ele>8</ele>
        <time>2021-03-04T10:15:02Z</time>
      </trkpt>
      <trkpt lat="48.83159" lon="-3.48612">
        <ele>8</ele>
        <time>2021-03-04T10:15:04Z</time>
      </trkpt>
      <trkpt lat="48.83183" lon="-3.48608">
        <ele>8</ele>
        <time>2021-03-04T10:15:09Z</time>
      </trkpt>
      <trkpt lat="48.83194" lon="-3.48609">
        <ele>7</ele>
        <time>2021-03-04T10:15:11Z</time>
      </trkpt>
      <trkpt lat="48.83201" lon="-3.4861">
        <ele>7</ele>
        <time>2021-03-04T10:15:12Z</time>
      </trkpt>
      <trkpt lat="48.83208" lon="-3.4861">
        <ele>7</ele>
        <time>2021-03-04T10:15:13Z</time>
      </trkpt>
      <trkpt lat="48.8322" lon="-3.4857">
        <ele>8</ele>
        <time>2021-03-04T10:15:18Z</time>
      </trkpt>
      <trkpt lat="48.8322" lon="-3.4856">
        <ele>8</ele>
        <time>2021-03-04T10:15:19Z</time>
      </trkpt>
      <trkpt lat="48.83216" lon="-3.48551">
        <ele>8</ele>
        <time>2021-03-04T10:15:21Z</time>
      </trkpt>
      <trkpt lat="48.83191" lon="-3.48509">
        <ele>9</ele>
        <time>2021-03-04T10:15:27Z</time>
      </trkpt>
      <trkpt lat="48.83175" lon="-3.48512">
        <ele>9</ele>
        <time>2021-03-04T10:15:30Z</time>
      </trkpt>
      <trkpt lat="48.83173" lon="-3.48513">
        <ele>9</ele>
        <time>2021-03-04T10:15:31Z</time>
      </trkpt>
    </trkseg>
  </trk>
</gpx>